<?xml version="1.0" encoding="UTF-8" standalone="no" ?>
<gpx xmlns="http://www.topografix.com/GPX/1/1" xmlns:xsi="http://www.w3.org/2001/XMLSchema-instance" xsi:schemaLocation="http://www.topografix.com/GPX/1/1 http://www.topografix.com/GPX/1/1/gpx.xsd" version="1.1" creator="VisuGPX - https://www.visugpx.com">
  <metadata>
    <name>Transvolv_2022_A-R_Crt et Lg</name>
  </metadata>
  <trk>
    <name><![CDATA[TV 2022 Retour court]]></name>
    <extensions>
      <line xmlns="http://www.topografix.com/GPX/gpx_style/0/2">
        <color>ffa200</color>
        <width>4</width>
          <extensions>
            <sens>1</sens>
          </extensions>
      </line>
    </extensions>
    <trkseg>
      <trkpt lat="45.57417" lon="2.80938">
        <ele>1038.2</ele>
        <time>2013-09-01T08:36:09Z</time>
      </trkpt>
      <trkpt lat="45.57466" lon="2.80905">
        <ele>1041.2</ele>
        <time>2013-09-01T08:36:29Z</time>
      </trkpt>
      <trkpt lat="45.57498" lon="2.8102">
        <ele>1050.5</ele>
        <time>2013-09-01T08:37:03Z</time>
      </trkpt>
      <trkpt lat="45.57591" lon="2.80983">
        <ele>1050.7</ele>
        <time>2013-09-01T08:37:40Z</time>
      </trkpt>
      <trkpt lat="45.57669" lon="2.80946">
        <ele>1051.8</ele>
        <time>2013-09-01T08:38:12Z</time>
      </trkpt>
      <trkpt lat="45.57709" lon="2.80911">
        <ele>1047.3</ele>
        <time>2013-09-01T08:38:31Z</time>
      </trkpt>
      <trkpt lat="45.57751" lon="2.80865">
        <ele>1041.5</ele>
        <time>2013-09-01T08:38:51Z</time>
      </trkpt>
      <trkpt lat="45.57834" lon="2.80769">
        <ele>1030.2</ele>
        <time>2013-09-01T08:39:32Z</time>
      </trkpt>
      <trkpt lat="45.57902" lon="2.80716">
        <ele>1027.5</ele>
        <time>2013-09-01T08:40:03Z</time>
      </trkpt>
      <trkpt lat="45.58036" lon="2.80652">
        <ele>1029.6</ele>
        <time>2013-09-01T08:40:57Z</time>
      </trkpt>
      <trkpt lat="45.58109" lon="2.80599">
        <ele>1030</ele>
        <time>2013-09-01T08:41:29Z</time>
      </trkpt>
      <trkpt lat="45.58158" lon="2.80547">
        <ele>1027.6</ele>
        <time>2013-09-01T08:41:52Z</time>
      </trkpt>
      <trkpt lat="45.58308" lon="2.80373">
        <ele>1016.8</ele>
        <time>2013-09-01T08:43:07Z</time>
      </trkpt>
      <trkpt lat="45.58348" lon="2.80369">
        <ele>1024.8</ele>
        <time>2013-09-01T08:43:23Z</time>
      </trkpt>
      <trkpt lat="45.5843" lon="2.80324">
        <ele>1029.3</ele>
        <time>2013-09-01T08:43:57Z</time>
      </trkpt>
      <trkpt lat="45.58683" lon="2.80163">
        <ele>1013.8</ele>
        <time>2013-09-01T08:45:44Z</time>
      </trkpt>
      <trkpt lat="45.58754" lon="2.80172">
        <ele>1011.4</ele>
        <time>2013-09-01T08:46:11Z</time>
      </trkpt>
      <trkpt lat="45.58791" lon="2.80223">
        <ele>1013.1</ele>
        <time>2013-09-01T08:46:31Z</time>
      </trkpt>
      <trkpt lat="45.58826" lon="2.80303">
        <ele>1012.6</ele>
        <time>2013-09-01T08:46:57Z</time>
      </trkpt>
      <trkpt lat="45.58821" lon="2.80335">
        <ele>1014.3</ele>
        <time>2013-09-01T08:47:06Z</time>
      </trkpt>
      <trkpt lat="45.58822" lon="2.80462">
        <ele>1020.5</ele>
        <time>2013-09-01T08:47:40Z</time>
      </trkpt>
      <trkpt lat="45.5884" lon="2.80609">
        <ele>1038.4</ele>
        <time>2013-09-01T08:48:21Z</time>
      </trkpt>
      <trkpt lat="45.5886" lon="2.80844">
        <ele>1042.8</ele>
        <time>2013-09-01T08:49:25Z</time>
      </trkpt>
      <trkpt lat="45.5884" lon="2.80902">
        <ele>1040.5</ele>
        <time>2013-09-01T08:49:43Z</time>
      </trkpt>
      <trkpt lat="45.58839" lon="2.80914">
        <ele>1056.6</ele>
        <time>2013-09-01T08:49:49Z</time>
      </trkpt>
      <trkpt lat="45.58947" lon="2.81029">
        <ele>1035.6</ele>
        <time>2013-09-01T08:50:42Z</time>
      </trkpt>
      <trkpt lat="45.58982" lon="2.81115">
        <ele>1040.3</ele>
        <time>2013-09-01T08:51:09Z</time>
      </trkpt>
      <trkpt lat="45.58991" lon="2.81312">
        <ele>1050.2</ele>
        <time>2013-09-01T08:52:02Z</time>
      </trkpt>
      <trkpt lat="45.59059" lon="2.81471">
        <ele>1069.9</ele>
        <time>2013-09-01T08:52:53Z</time>
      </trkpt>
      <trkpt lat="45.59132" lon="2.81547">
        <ele>1076.3</ele>
        <time>2013-09-01T08:53:28Z</time>
      </trkpt>
      <trkpt lat="45.59212" lon="2.81703">
        <ele>1085.8</ele>
        <time>2013-09-01T08:54:21Z</time>
      </trkpt>
      <trkpt lat="45.59218" lon="2.81803">
        <ele>1098.3</ele>
        <time>2013-09-01T08:54:48Z</time>
      </trkpt>
      <trkpt lat="45.59236" lon="2.81886">
        <ele>1113.5</ele>
        <time>2013-09-01T08:55:12Z</time>
      </trkpt>
      <trkpt lat="45.59258" lon="2.81974">
        <ele>1130.5</ele>
        <time>2013-09-01T08:55:38Z</time>
      </trkpt>
      <trkpt lat="45.59276" lon="2.8204">
        <ele>1144.1</ele>
        <time>2013-09-01T08:55:58Z</time>
      </trkpt>
      <trkpt lat="45.59285" lon="2.82032">
        <ele>1144.6</ele>
        <time>2013-09-01T08:56:02Z</time>
      </trkpt>
      <trkpt lat="45.59288" lon="2.81962">
        <ele>1130.4</ele>
        <time>2013-09-01T08:56:21Z</time>
      </trkpt>
      <trkpt lat="45.59294" lon="2.81934">
        <ele>1124.1</ele>
        <time>2013-09-01T08:56:30Z</time>
      </trkpt>
      <trkpt lat="45.59313" lon="2.81907">
        <ele>1117.2</ele>
        <time>2013-09-01T08:56:40Z</time>
      </trkpt>
      <trkpt lat="45.59322" lon="2.81909">
        <ele>1117.5</ele>
        <time>2013-09-01T08:56:44Z</time>
      </trkpt>
      <trkpt lat="45.59327" lon="2.81923">
        <ele>1120.8</ele>
        <time>2013-09-01T08:56:48Z</time>
      </trkpt>
      <trkpt lat="45.59321" lon="2.81953">
        <ele>1130.2</ele>
        <time>2013-09-01T08:56:57Z</time>
      </trkpt>
      <trkpt lat="45.59315" lon="2.81986">
        <ele>1139.2</ele>
        <time>2013-09-01T08:57:07Z</time>
      </trkpt>
      <trkpt lat="45.59321" lon="2.82068">
        <ele>1160.6</ele>
        <time>2013-09-01T08:57:30Z</time>
      </trkpt>
      <trkpt lat="45.59349" lon="2.82141">
        <ele>1176.9</ele>
        <time>2013-09-01T08:57:53Z</time>
      </trkpt>
      <trkpt lat="45.59366" lon="2.82222">
        <ele>1189.3</ele>
        <time>2013-09-01T08:58:17Z</time>
      </trkpt>
      <trkpt lat="45.59399" lon="2.82347">
        <ele>1207</ele>
        <time>2013-09-01T08:58:54Z</time>
      </trkpt>
      <trkpt lat="45.59448" lon="2.82432">
        <ele>1214.5</ele>
        <time>2013-09-01T08:59:23Z</time>
      </trkpt>
      <trkpt lat="45.59449" lon="2.82396">
        <ele>1215.3</ele>
        <time>2013-09-01T08:59:33Z</time>
      </trkpt>
      <trkpt lat="45.59464" lon="2.82395">
        <ele>1217</ele>
        <time>2013-09-01T08:59:39Z</time>
      </trkpt>
      <trkpt lat="45.59561" lon="2.82585">
        <ele>1227.5</ele>
        <time>2013-09-01T09:00:43Z</time>
      </trkpt>
      <trkpt lat="45.59669" lon="2.82797">
        <ele>1235.7</ele>
        <time>2013-09-01T09:01:54Z</time>
      </trkpt>
      <trkpt lat="45.59755" lon="2.82911">
        <ele>1246.9</ele>
        <time>2013-09-01T09:02:39Z</time>
      </trkpt>
      <trkpt lat="45.59774" lon="2.82991">
        <ele>1245.8</ele>
        <time>2013-09-01T09:03:02Z</time>
      </trkpt>
      <trkpt lat="45.5975" lon="2.83044">
        <ele>1247.6</ele>
        <time>2013-09-01T09:03:19Z</time>
      </trkpt>
      <trkpt lat="45.59736" lon="2.83091">
        <ele>1249.9</ele>
        <time>2013-09-01T09:03:33Z</time>
      </trkpt>
      <trkpt lat="45.5976" lon="2.83108">
        <ele>1251.6</ele>
        <time>2013-09-01T09:03:43Z</time>
      </trkpt>
      <trkpt lat="45.59807" lon="2.83123">
        <ele>1250.9</ele>
        <time>2013-09-01T09:04:02Z</time>
      </trkpt>
      <trkpt lat="45.59826" lon="2.83142">
        <ele>1251.4</ele>
        <time>2013-09-01T09:04:11Z</time>
      </trkpt>
      <trkpt lat="45.59893" lon="2.83309">
        <ele>1262.8</ele>
        <time>2013-09-01T09:05:03Z</time>
      </trkpt>
      <trkpt lat="45.59936" lon="2.83421">
        <ele>1270.5</ele>
        <time>2013-09-01T09:05:38Z</time>
      </trkpt>
      <trkpt lat="45.5999" lon="2.83576">
        <ele>1279.4</ele>
        <time>2013-09-01T09:06:25Z</time>
      </trkpt>
      <trkpt lat="45.60023" lon="2.83715">
        <ele>1287.5</ele>
        <time>2013-09-01T09:07:05Z</time>
      </trkpt>
      <trkpt lat="45.60041" lon="2.83834">
        <ele>1294.6</ele>
        <time>2013-09-01T09:07:37Z</time>
      </trkpt>
      <trkpt lat="45.60061" lon="2.83927">
        <ele>1299.2</ele>
        <time>2013-09-01T09:08:04Z</time>
      </trkpt>
      <trkpt lat="45.60082" lon="2.84035">
        <ele>1307.5</ele>
        <time>2013-09-01T09:08:34Z</time>
      </trkpt>
      <trkpt lat="45.60084" lon="2.84115">
        <ele>1314.1</ele>
        <time>2013-09-01T09:08:56Z</time>
      </trkpt>
      <trkpt lat="45.60076" lon="2.84187">
        <ele>1320.1</ele>
        <time>2013-09-01T09:09:16Z</time>
      </trkpt>
      <trkpt lat="45.60067" lon="2.84225">
        <ele>1323.3</ele>
        <time>2013-09-01T09:09:27Z</time>
      </trkpt>
      <trkpt lat="45.60051" lon="2.8426">
        <ele>1327.7</ele>
        <time>2013-09-01T09:09:38Z</time>
      </trkpt>
      <trkpt lat="45.60051" lon="2.84313">
        <ele>1331.4</ele>
        <time>2013-09-01T09:09:53Z</time>
      </trkpt>
      <trkpt lat="45.60046" lon="2.84352">
        <ele>1334.5</ele>
        <time>2013-09-01T09:10:03Z</time>
      </trkpt>
      <trkpt lat="45.60033" lon="2.84395">
        <ele>1338.6</ele>
        <time>2013-09-01T09:10:16Z</time>
      </trkpt>
      <trkpt lat="45.60006" lon="2.84473">
        <ele>1345.3</ele>
        <time>2013-09-01T09:10:40Z</time>
      </trkpt>
      <trkpt lat="45.59964" lon="2.84509">
        <ele>1350.8</ele>
        <time>2013-09-01T09:10:59Z</time>
      </trkpt>
      <trkpt lat="45.59999" lon="2.8466">
        <ele>1355.6</ele>
        <time>2013-09-01T09:11:42Z</time>
      </trkpt>
      <trkpt lat="45.60266" lon="2.84993">
        <ele>1377.7</ele>
        <time>2013-09-01T09:13:59Z</time>
      </trkpt>
      <trkpt lat="45.60425" lon="2.85117">
        <ele>1377.8</ele>
        <time>2013-09-01T09:15:09Z</time>
      </trkpt>
      <trkpt lat="45.60438" lon="2.85134">
        <ele>1378.2</ele>
        <time>2013-09-01T09:15:16Z</time>
      </trkpt>
      <trkpt lat="45.60452" lon="2.85182">
        <ele>1380.3</ele>
        <time>2013-09-01T09:15:30Z</time>
      </trkpt>
      <trkpt lat="45.60485" lon="2.85253">
        <ele>1384.1</ele>
        <time>2013-09-01T09:15:53Z</time>
      </trkpt>
      <trkpt lat="45.6053" lon="2.85304">
        <ele>1387.3</ele>
        <time>2013-09-01T09:16:15Z</time>
      </trkpt>
      <trkpt lat="45.60573" lon="2.85388">
        <ele>1393.4</ele>
        <time>2013-09-01T09:16:43Z</time>
      </trkpt>
      <trkpt lat="45.60584" lon="2.85396">
        <ele>1394.3</ele>
        <time>2013-09-01T09:16:48Z</time>
      </trkpt>
      <trkpt lat="45.60691" lon="2.85419">
        <ele>1399</ele>
        <time>2013-09-01T09:17:30Z</time>
      </trkpt>
      <trkpt lat="45.60769" lon="2.85421">
        <ele>1401.3</ele>
        <time>2013-09-01T09:18:00Z</time>
      </trkpt>
      <trkpt lat="45.6088" lon="2.85442">
        <ele>1403.7</ele>
        <time>2013-09-01T09:18:44Z</time>
      </trkpt>
      <trkpt lat="45.60934" lon="2.85481">
        <ele>1406.8</ele>
        <time>2013-09-01T09:19:07Z</time>
      </trkpt>
      <trkpt lat="45.61037" lon="2.85574">
        <ele>1414.7</ele>
        <time>2013-09-01T09:19:54Z</time>
      </trkpt>
      <trkpt lat="45.61118" lon="2.85664">
        <ele>1410</ele>
        <time>2013-09-01T09:20:34Z</time>
      </trkpt>
      <trkpt lat="45.61159" lon="2.85754">
        <ele>1402</ele>
        <time>2013-09-01T09:21:03Z</time>
      </trkpt>
      <trkpt lat="45.61263" lon="2.85983">
        <ele>1389.5</ele>
        <time>2013-09-01T09:22:17Z</time>
      </trkpt>
      <trkpt lat="45.61294" lon="2.86063">
        <ele>1388.3</ele>
        <time>2013-09-01T09:22:42Z</time>
      </trkpt>
      <trkpt lat="45.61283" lon="2.86139">
        <ele>1383.1</ele>
        <time>2013-09-01T09:23:03Z</time>
      </trkpt>
      <trkpt lat="45.61263" lon="2.8612">
        <ele>1378.7</ele>
        <time>2013-09-01T09:23:12Z</time>
      </trkpt>
      <trkpt lat="45.61234" lon="2.86081">
        <ele>1374.9</ele>
        <time>2013-09-01T09:23:27Z</time>
      </trkpt>
      <trkpt lat="45.61206" lon="2.86053">
        <ele>1371.2</ele>
        <time>2013-09-01T09:23:41Z</time>
      </trkpt>
      <trkpt lat="45.612" lon="2.86068">
        <ele>1369.3</ele>
        <time>2013-09-01T09:23:45Z</time>
      </trkpt>
      <trkpt lat="45.61215" lon="2.8612">
        <ele>1367.9</ele>
        <time>2013-09-01T09:24:01Z</time>
      </trkpt>
      <trkpt lat="45.61215" lon="2.86172">
        <ele>1362.9</ele>
        <time>2013-09-01T09:24:15Z</time>
      </trkpt>
      <trkpt lat="45.61225" lon="2.86232">
        <ele>1363.7</ele>
        <time>2013-09-01T09:24:31Z</time>
      </trkpt>
      <trkpt lat="45.61179" lon="2.86372">
        <ele>1352.8</ele>
        <time>2013-09-01T09:25:14Z</time>
      </trkpt>
      <trkpt lat="45.61155" lon="2.86448">
        <ele>1346.2</ele>
        <time>2013-09-01T09:25:36Z</time>
      </trkpt>
      <trkpt lat="45.61141" lon="2.86526">
        <ele>1343.1</ele>
        <time>2013-09-01T09:25:58Z</time>
      </trkpt>
      <trkpt lat="45.61134" lon="2.86523">
        <ele>1341.4</ele>
        <time>2013-09-01T09:26:01Z</time>
      </trkpt>
      <trkpt lat="45.61109" lon="2.86422">
        <ele>1331.9</ele>
        <time>2013-09-01T09:26:30Z</time>
      </trkpt>
      <trkpt lat="45.61098" lon="2.86432">
        <ele>1330</ele>
        <time>2013-09-01T09:26:35Z</time>
      </trkpt>
      <trkpt lat="45.61048" lon="2.865">
        <ele>1321.6</ele>
        <time>2013-09-01T09:27:02Z</time>
      </trkpt>
      <trkpt lat="45.61039" lon="2.86547">
        <ele>1318.5</ele>
        <time>2013-09-01T09:27:15Z</time>
      </trkpt>
      <trkpt lat="45.60999" lon="2.8657">
        <ele>1305.5</ele>
        <time>2013-09-01T09:27:32Z</time>
      </trkpt>
      <trkpt lat="45.60988" lon="2.86593">
        <ele>1304.1</ele>
        <time>2013-09-01T09:27:40Z</time>
      </trkpt>
      <trkpt lat="45.60985" lon="2.86713">
        <ele>1295.6</ele>
        <time>2013-09-01T09:28:12Z</time>
      </trkpt>
      <trkpt lat="45.61015" lon="2.86895">
        <ele>1286.7</ele>
        <time>2013-09-01T09:29:03Z</time>
      </trkpt>
      <trkpt lat="45.60963" lon="2.86988">
        <ele>1274.6</ele>
        <time>2013-09-01T09:29:36Z</time>
      </trkpt>
      <trkpt lat="45.60931" lon="2.87139">
        <ele>1266.7</ele>
        <time>2013-09-01T09:30:18Z</time>
      </trkpt>
      <trkpt lat="45.60933" lon="2.87175">
        <ele>1264</ele>
        <time>2013-09-01T09:30:28Z</time>
      </trkpt>
      <trkpt lat="45.60952" lon="2.87178">
        <ele>1260</ele>
        <time>2013-09-01T09:30:36Z</time>
      </trkpt>
      <trkpt lat="45.60972" lon="2.87149">
        <ele>1260.7</ele>
        <time>2013-09-01T09:30:47Z</time>
      </trkpt>
      <trkpt lat="45.60985" lon="2.87105">
        <ele>1263.6</ele>
        <time>2013-09-01T09:31:00Z</time>
      </trkpt>
      <trkpt lat="45.61006" lon="2.87092">
        <ele>1263.9</ele>
        <time>2013-09-01T09:31:09Z</time>
      </trkpt>
      <trkpt lat="45.61125" lon="2.87308">
        <ele>1243.1</ele>
        <time>2013-09-01T09:32:23Z</time>
      </trkpt>
      <trkpt lat="45.61188" lon="2.87547">
        <ele>1226.4</ele>
        <time>2013-09-01T09:33:33Z</time>
      </trkpt>
      <trkpt lat="45.61278" lon="2.87674">
        <ele>1216.4</ele>
        <time>2013-09-01T09:34:22Z</time>
      </trkpt>
      <trkpt lat="45.61242" lon="2.87687">
        <ele>1211.7</ele>
        <time>2013-09-01T09:34:36Z</time>
      </trkpt>
      <trkpt lat="45.61166" lon="2.87664">
        <ele>1209.4</ele>
        <time>2013-09-01T09:35:06Z</time>
      </trkpt>
      <trkpt lat="45.61107" lon="2.87669">
        <ele>1211.6</ele>
        <time>2013-09-01T09:35:29Z</time>
      </trkpt>
      <trkpt lat="45.61082" lon="2.87768">
        <ele>1217.1</ele>
        <time>2013-09-01T09:35:58Z</time>
      </trkpt>
      <trkpt lat="45.61071" lon="2.8768">
        <ele>1221.1</ele>
        <time>2013-09-01T09:36:22Z</time>
      </trkpt>
      <trkpt lat="45.61064" lon="2.87677">
        <ele>1223.1</ele>
        <time>2013-09-01T09:36:25Z</time>
      </trkpt>
      <trkpt lat="45.61051" lon="2.88075">
        <ele>1221.9</ele>
        <time>2013-09-01T09:38:12Z</time>
      </trkpt>
      <trkpt lat="45.61057" lon="2.88299">
        <ele>1225.5</ele>
        <time>2013-09-01T09:39:13Z</time>
      </trkpt>
      <trkpt lat="45.6112" lon="2.88718">
        <ele>1235.5</ele>
        <time>2013-09-01T09:41:09Z</time>
      </trkpt>
      <trkpt lat="45.61097" lon="2.89386">
        <ele>1238.6</ele>
        <time>2013-09-01T09:44:10Z</time>
      </trkpt>
      <trkpt lat="45.61096" lon="2.89501">
        <ele>1236.9</ele>
        <time>2013-09-01T09:44:41Z</time>
      </trkpt>
      <trkpt lat="45.61074" lon="2.89501">
        <ele>1238.1</ele>
        <time>2013-09-01T09:44:49Z</time>
      </trkpt>
      <trkpt lat="45.60954" lon="2.89462">
        <ele>1239.2</ele>
        <time>2013-09-01T09:45:37Z</time>
      </trkpt>
      <trkpt lat="45.60898" lon="2.89437">
        <ele>1236.6</ele>
        <time>2013-09-01T09:46:00Z</time>
      </trkpt>
      <trkpt lat="45.60853" lon="2.89413">
        <ele>1232.8</ele>
        <time>2013-09-01T09:46:18Z</time>
      </trkpt>
      <trkpt lat="45.60822" lon="2.89421">
        <ele>1229.2</ele>
        <time>2013-09-01T09:46:30Z</time>
      </trkpt>
      <trkpt lat="45.60787" lon="2.89463">
        <ele>1225.5</ele>
        <time>2013-09-01T09:46:48Z</time>
      </trkpt>
      <trkpt lat="45.60751" lon="2.89561">
        <ele>1218.4</ele>
        <time>2013-09-01T09:47:18Z</time>
      </trkpt>
      <trkpt lat="45.60706" lon="2.89658">
        <ele>1205.7</ele>
        <time>2013-09-01T09:47:50Z</time>
      </trkpt>
      <trkpt lat="45.60643" lon="2.8984">
        <ele>1193</ele>
        <time>2013-09-01T09:48:45Z</time>
      </trkpt>
      <trkpt lat="45.60518" lon="2.90093">
        <ele>1168</ele>
        <time>2013-09-01T09:50:10Z</time>
      </trkpt>
      <trkpt lat="45.60459" lon="2.90262">
        <ele>1155.9</ele>
        <time>2013-09-01T09:51:01Z</time>
      </trkpt>
      <trkpt lat="45.60343" lon="2.90438">
        <ele>1133.4</ele>
        <time>2013-09-01T09:52:07Z</time>
      </trkpt>
      <trkpt lat="45.60343" lon="2.90496">
        <ele>1133.4</ele>
        <time>2013-09-01T09:52:22Z</time>
      </trkpt>
      <trkpt lat="45.60136" lon="2.90626">
        <ele>1109.7</ele>
        <time>2013-09-01T09:53:50Z</time>
      </trkpt>
      <trkpt lat="45.60033" lon="2.90775">
        <ele>1095.8</ele>
        <time>2013-09-01T09:54:47Z</time>
      </trkpt>
      <trkpt lat="45.59943" lon="2.90853">
        <ele>1086</ele>
        <time>2013-09-01T09:55:28Z</time>
      </trkpt>
      <trkpt lat="45.59853" lon="2.90964">
        <ele>1078.8</ele>
        <time>2013-09-01T09:56:14Z</time>
      </trkpt>
      <trkpt lat="45.59736" lon="2.91048">
        <ele>1085.2</ele>
        <time>2013-09-01T09:57:04Z</time>
      </trkpt>
      <trkpt lat="45.5966" lon="2.91185">
        <ele>1094.2</ele>
        <time>2013-09-01T09:57:52Z</time>
      </trkpt>
      <trkpt lat="45.5939" lon="2.91457">
        <ele>1085.2</ele>
        <time>2013-09-01T09:59:59Z</time>
      </trkpt>
      <trkpt lat="45.59363" lon="2.91538">
        <ele>1082.8</ele>
        <time>2013-09-01T10:00:24Z</time>
      </trkpt>
      <trkpt lat="45.59257" lon="2.91714">
        <ele>1065.8</ele>
        <time>2013-09-01T10:00:55Z</time>
      </trkpt>
      <trkpt lat="45.5925" lon="2.91724">
        <ele>1071.6</ele>
        <time>2013-09-01T10:01:07Z</time>
      </trkpt>
      <trkpt lat="45.59262" lon="2.91704">
        <ele>1066.6</ele>
        <time>2013-09-01T10:01:16Z</time>
      </trkpt>
      <trkpt lat="45.59278" lon="2.91677">
        <ele>1069.5</ele>
        <time>2013-09-01T10:01:26Z</time>
      </trkpt>
      <trkpt lat="45.59248" lon="2.91745">
        <ele>1065.8</ele>
        <time>2013-09-01T10:01:51Z</time>
      </trkpt>
      <trkpt lat="45.59242" lon="2.91794">
        <ele>1066.7</ele>
        <time>2013-09-01T10:02:09Z</time>
      </trkpt>
      <trkpt lat="45.59241" lon="2.9188">
        <ele>1055.5</ele>
        <time>2013-09-01T10:02:15Z</time>
      </trkpt>
      <trkpt lat="45.5921" lon="2.9188">
        <ele>1063.8</ele>
        <time>2013-09-01T10:02:17Z</time>
      </trkpt>
      <trkpt lat="45.59175" lon="2.91886">
        <ele>1054.7</ele>
        <time>2013-09-01T10:02:32Z</time>
      </trkpt>
      <trkpt lat="45.59147" lon="2.91889">
        <ele>1048.5</ele>
        <time>2013-09-01T10:02:36Z</time>
      </trkpt>
      <trkpt lat="45.59128" lon="2.91802">
        <ele>1050.6</ele>
        <time>2013-09-01T10:02:53Z</time>
      </trkpt>
      <trkpt lat="45.59102" lon="2.91748">
        <ele>1047.5</ele>
        <time>2013-09-01T10:03:05Z</time>
      </trkpt>
      <trkpt lat="45.59092" lon="2.91735">
        <ele>1043.7</ele>
        <time>2013-09-01T10:03:16Z</time>
      </trkpt>
      <trkpt lat="45.59067" lon="2.91757">
        <ele>1036.5</ele>
        <time>2013-09-01T10:03:20Z</time>
      </trkpt>
      <trkpt lat="45.59055" lon="2.91765">
        <ele>1038.1</ele>
        <time>2013-09-01T10:03:32Z</time>
      </trkpt>
      <trkpt lat="45.59042" lon="2.9178">
        <ele>1037.5</ele>
        <time>2013-09-01T10:03:39Z</time>
      </trkpt>
      <trkpt lat="45.59" lon="2.91783">
        <ele>1036.7</ele>
        <time>2013-09-01T10:03:55Z</time>
      </trkpt>
      <trkpt lat="45.58951" lon="2.91782">
        <ele>1038.7</ele>
        <time>2013-09-01T10:04:14Z</time>
      </trkpt>
      <trkpt lat="45.5893" lon="2.91771">
        <ele>1040.3</ele>
        <time>2013-09-01T10:04:22Z</time>
      </trkpt>
      <trkpt lat="45.58916" lon="2.91785">
        <ele>1041.4</ele>
        <time>2013-09-01T10:04:29Z</time>
      </trkpt>
      <trkpt lat="45.58904" lon="2.91805">
        <ele>1042.1</ele>
        <time>2013-09-01T10:04:36Z</time>
      </trkpt>
      <trkpt lat="45.58865" lon="2.91791">
        <ele>1045.3</ele>
        <time>2013-09-01T10:04:52Z</time>
      </trkpt>
      <trkpt lat="45.58799" lon="2.9177">
        <ele>1049.2</ele>
        <time>2013-09-01T10:05:18Z</time>
      </trkpt>
      <trkpt lat="45.58766" lon="2.91776">
        <ele>1050.3</ele>
        <time>2013-09-01T10:05:31Z</time>
      </trkpt>
      <trkpt lat="45.58537" lon="2.91892">
        <ele>1052</ele>
        <time>2013-09-01T10:07:05Z</time>
      </trkpt>
      <trkpt lat="45.58492" lon="2.91937">
        <ele>1049.7</ele>
        <time>2013-09-01T10:07:26Z</time>
      </trkpt>
      <trkpt lat="45.58317" lon="2.92061">
        <ele>1065.3</ele>
        <time>2013-09-01T10:08:42Z</time>
      </trkpt>
      <trkpt lat="45.58317" lon="2.92145">
        <ele>1064.9</ele>
        <time>2013-09-01T10:09:05Z</time>
      </trkpt>
      <trkpt lat="45.58276" lon="2.92301">
        <ele>1066.1</ele>
        <time>2013-09-01T10:09:50Z</time>
      </trkpt>
      <trkpt lat="45.58267" lon="2.92554">
        <ele>1038.7</ele>
        <time>2013-09-01T10:10:59Z</time>
      </trkpt>
      <trkpt lat="45.58263" lon="2.92674">
        <ele>1038.7</ele>
        <time>2013-09-01T10:11:32Z</time>
      </trkpt>
      <trkpt lat="45.58194" lon="2.92847">
        <ele>1038.1</ele>
        <time>2013-09-01T10:12:35Z</time>
      </trkpt>
      <trkpt lat="45.58195" lon="2.92889">
        <ele>1042.6</ele>
        <time>2022-08-30T20:47:44Z</time>
      </trkpt>
      <trkpt lat="45.58175" lon="2.92977">
        <ele>1048</ele>
        <time>2022-08-30T20:47:52Z</time>
      </trkpt>
      <trkpt lat="45.58212" lon="2.93149">
        <ele>1031.4</ele>
        <time>2022-08-30T20:48:06Z</time>
      </trkpt>
      <trkpt lat="45.58302" lon="2.93284">
        <ele>1011.4</ele>
        <time>2022-08-30T20:48:21Z</time>
      </trkpt>
      <trkpt lat="45.58434" lon="2.93346">
        <ele>995.8</ele>
        <time>2022-08-30T20:48:36Z</time>
      </trkpt>
      <trkpt lat="45.58432" lon="2.93451">
        <ele>989.6</ele>
        <time>2022-08-30T20:48:44Z</time>
      </trkpt>
      <trkpt lat="45.58392" lon="2.93492">
        <ele>980.6</ele>
        <time>2022-08-30T20:48:53Z</time>
      </trkpt>
      <trkpt lat="45.58356" lon="2.93495">
        <ele>975.9</ele>
        <time>2022-08-30T20:48:59Z</time>
      </trkpt>
      <trkpt lat="45.58372" lon="2.93524">
        <ele>974.1</ele>
        <time>2022-08-30T20:49:22Z</time>
      </trkpt>
      <trkpt lat="45.58509" lon="2.93571">
        <ele>970.7</ele>
        <time>2013-09-01T10:16:37Z</time>
      </trkpt>
      <trkpt lat="45.58493" lon="2.93598">
        <ele>963.9</ele>
        <time>2013-09-01T10:17:32Z</time>
      </trkpt>
      <trkpt lat="45.58335" lon="2.93627">
        <ele>961.3</ele>
        <time>2013-09-01T10:18:07Z</time>
      </trkpt>
      <trkpt lat="45.58245" lon="2.93658">
        <ele>951.6</ele>
        <time>2013-09-01T10:18:40Z</time>
      </trkpt>
      <trkpt lat="45.581" lon="2.93774">
        <ele>931.3</ele>
        <time>2013-09-01T10:19:31Z</time>
      </trkpt>
      <trkpt lat="45.58063" lon="2.93789">
        <ele>927</ele>
        <time>2013-09-01T10:19:44Z</time>
      </trkpt>
      <trkpt lat="45.58038" lon="2.93789">
        <ele>925</ele>
        <time>2013-09-01T10:19:57Z</time>
      </trkpt>
      <trkpt lat="45.5794" lon="2.93874">
        <ele>910.4</ele>
        <time>2013-09-01T10:20:12Z</time>
      </trkpt>
      <trkpt lat="45.57874" lon="2.94035">
        <ele>908</ele>
        <time>2013-09-01T10:20:23Z</time>
      </trkpt>
      <trkpt lat="45.57785" lon="2.94147">
        <ele>894.7</ele>
        <time>2013-09-01T10:20:32Z</time>
      </trkpt>
      <trkpt lat="45.57734" lon="2.94227">
        <ele>883.3</ele>
        <time>2013-09-01T10:20:46Z</time>
      </trkpt>
      <trkpt lat="45.57799" lon="2.94219">
        <ele>887.7</ele>
        <time>2013-09-01T10:21:11Z</time>
      </trkpt>
      <trkpt lat="45.57968" lon="2.9411">
        <ele>863.4</ele>
        <time>2013-09-01T10:22:23Z</time>
      </trkpt>
      <trkpt lat="45.58078" lon="2.94115">
        <ele>858.5</ele>
        <time>2013-09-01T10:23:06Z</time>
      </trkpt>
      <trkpt lat="45.58216" lon="2.94172">
        <ele>859.9</ele>
        <time>2013-09-01T10:24:01Z</time>
      </trkpt>
      <trkpt lat="45.58248" lon="2.94172">
        <ele>863.4</ele>
        <time>2013-09-01T10:24:14Z</time>
      </trkpt>
      <trkpt lat="45.58281" lon="2.94191">
        <ele>866.4</ele>
        <time>2013-09-01T10:24:27Z</time>
      </trkpt>
      <trkpt lat="45.58313" lon="2.94282">
        <ele>866.3</ele>
        <time>2013-09-01T10:24:55Z</time>
      </trkpt>
      <trkpt lat="45.58374" lon="2.94373">
        <ele>863.8</ele>
        <time>2013-09-01T10:25:29Z</time>
      </trkpt>
      <trkpt lat="45.58449" lon="2.94396">
        <ele>872.9</ele>
        <time>2013-09-01T10:25:59Z</time>
      </trkpt>
      <trkpt lat="45.58502" lon="2.94401">
        <ele>879.7</ele>
        <time>2013-09-01T10:26:20Z</time>
      </trkpt>
      <trkpt lat="45.58512" lon="2.94417">
        <ele>881.3</ele>
        <time>2013-09-01T10:26:25Z</time>
      </trkpt>
      <trkpt lat="45.58537" lon="2.94417">
        <ele>885.6</ele>
        <time>2013-09-01T10:26:35Z</time>
      </trkpt>
      <trkpt lat="45.58579" lon="2.94476">
        <ele>893.4</ele>
        <time>2013-09-01T10:26:58Z</time>
      </trkpt>
      <trkpt lat="45.58581" lon="2.94554">
        <ele>892.9</ele>
        <time>2013-09-01T10:27:19Z</time>
      </trkpt>
      <trkpt lat="45.58599" lon="2.94624">
        <ele>890.9</ele>
        <time>2013-09-01T10:27:39Z</time>
      </trkpt>
      <trkpt lat="45.58635" lon="2.94669">
        <ele>892.1</ele>
        <time>2013-09-01T10:27:58Z</time>
      </trkpt>
      <trkpt lat="45.58663" lon="2.94723">
        <ele>891.2</ele>
        <time>2013-09-01T10:28:16Z</time>
      </trkpt>
      <trkpt lat="45.58671" lon="2.94759">
        <ele>889.5</ele>
        <time>2013-09-01T10:28:26Z</time>
      </trkpt>
      <trkpt lat="45.58673" lon="2.94829">
        <ele>884.4</ele>
        <time>2013-09-01T10:28:45Z</time>
      </trkpt>
      <trkpt lat="45.58673" lon="2.94872">
        <ele>880.6</ele>
        <time>2013-09-01T10:28:57Z</time>
      </trkpt>
      <trkpt lat="45.58679" lon="2.9489">
        <ele>880.6</ele>
        <time>2013-09-01T10:29:02Z</time>
      </trkpt>
      <trkpt lat="45.58691" lon="2.94922">
        <ele>882</ele>
        <time>2013-09-01T10:29:12Z</time>
      </trkpt>
      <trkpt lat="45.58698" lon="2.94946">
        <ele>883.9</ele>
        <time>2013-09-01T10:29:19Z</time>
      </trkpt>
      <trkpt lat="45.58691" lon="2.95019">
        <ele>884.2</ele>
        <time>2013-09-01T10:29:39Z</time>
      </trkpt>
      <trkpt lat="45.58711" lon="2.95131">
        <ele>884.3</ele>
        <time>2013-09-01T10:30:11Z</time>
      </trkpt>
      <trkpt lat="45.58714" lon="2.95168">
        <ele>881.2</ele>
        <time>2013-09-01T10:30:21Z</time>
      </trkpt>
      <trkpt lat="45.5871" lon="2.95213">
        <ele>874.6</ele>
        <time>2013-09-01T10:30:33Z</time>
      </trkpt>
      <trkpt lat="45.58772" lon="2.95354">
        <ele>867.1</ele>
        <time>2013-09-01T10:31:18Z</time>
      </trkpt>
      <trkpt lat="45.58793" lon="2.95384">
        <ele>865.7</ele>
        <time>2013-09-01T10:31:30Z</time>
      </trkpt>
      <trkpt lat="45.58811" lon="2.95439">
        <ele>858.1</ele>
        <time>2013-09-01T10:31:47Z</time>
      </trkpt>
      <trkpt lat="45.58842" lon="2.95486">
        <ele>855.7</ele>
        <time>2013-09-01T10:32:04Z</time>
      </trkpt>
      <trkpt lat="45.58853" lon="2.95512">
        <ele>854.8</ele>
        <time>2013-09-01T10:32:12Z</time>
      </trkpt>
      <trkpt lat="45.58842" lon="2.95564">
        <ele>846.8</ele>
        <time>2013-09-01T10:32:27Z</time>
      </trkpt>
      <trkpt lat="45.58836" lon="2.95641">
        <ele>837.5</ele>
        <time>2013-09-01T10:32:48Z</time>
      </trkpt>
      <trkpt lat="45.58856" lon="2.95793">
        <ele>827.6</ele>
        <time>2013-09-01T10:33:30Z</time>
      </trkpt>
      <trkpt lat="45.58843" lon="2.95878">
        <ele>821.5</ele>
        <time>2013-09-01T10:33:54Z</time>
      </trkpt>
      <trkpt lat="45.58843" lon="2.95911">
        <ele>821.3</ele>
        <time>2013-09-01T10:34:03Z</time>
      </trkpt>
      <trkpt lat="45.5883" lon="2.95954">
        <ele>820.3</ele>
        <time>2013-09-01T10:34:16Z</time>
      </trkpt>
      <trkpt lat="45.58819" lon="2.96041">
        <ele>817.2</ele>
        <time>2013-09-01T10:34:40Z</time>
      </trkpt>
      <trkpt lat="45.58804" lon="2.96106">
        <ele>814.2</ele>
        <time>2013-09-01T10:34:58Z</time>
      </trkpt>
      <trkpt lat="45.58776" lon="2.9617">
        <ele>814.7</ele>
        <time>2013-09-01T10:35:19Z</time>
      </trkpt>
      <trkpt lat="45.58764" lon="2.96208">
        <ele>816.7</ele>
        <time>2013-09-01T10:35:30Z</time>
      </trkpt>
      <trkpt lat="45.5886" lon="2.9625">
        <ele>732.4</ele>
        <time>2013-09-01T10:36:19Z</time>
        <extensions>
          <gpxtpx:TrackPointExtension xmlns:gpxtpx="http://www.garmin.com/xmlschemas/TrackPointExtension/v1">
            <gpxtpx:hr>148</gpxtpx:hr>
          </gpxtpx:TrackPointExtension>
        </extensions>
      </trkpt>
      <trkpt lat="45.58975" lon="2.96314">
        <ele>803.9</ele>
        <time>2013-09-01T10:37:05Z</time>
      </trkpt>
      <trkpt lat="45.58984" lon="2.96331">
        <ele>804</ele>
        <time>2013-09-01T10:37:10Z</time>
      </trkpt>
      <trkpt lat="45.58984" lon="2.96346">
        <ele>803.7</ele>
        <time>2013-09-01T10:37:14Z</time>
      </trkpt>
      <trkpt lat="45.58983" lon="2.96357">
        <ele>803.4</ele>
        <time>2013-09-01T10:37:16Z</time>
      </trkpt>
      <trkpt lat="45.58997" lon="2.96365">
        <ele>804.7</ele>
        <time>2013-09-01T10:37:21Z</time>
      </trkpt>
      <trkpt lat="45.59023" lon="2.9638">
        <ele>809.7</ele>
        <time>2013-09-01T10:37:31Z</time>
      </trkpt>
      <trkpt lat="45.59048" lon="2.96419">
        <ele>816</ele>
        <time>2013-09-01T10:37:43Z</time>
      </trkpt>
      <trkpt lat="45.59059" lon="2.96444">
        <ele>819.2</ele>
        <time>2013-09-01T10:37:50Z</time>
      </trkpt>
      <trkpt lat="45.5906" lon="2.96478">
        <ele>820.6</ele>
        <time>2013-09-01T10:37:58Z</time>
      </trkpt>
      <trkpt lat="45.59052" lon="2.96523">
        <ele>818.3</ele>
        <time>2013-09-01T10:38:09Z</time>
      </trkpt>
      <trkpt lat="45.59054" lon="2.96548">
        <ele>818.2</ele>
        <time>2013-09-01T10:38:15Z</time>
      </trkpt>
      <trkpt lat="45.59114" lon="2.96685">
        <ele>751.6</ele>
        <time>2013-09-01T10:38:58Z</time>
        <extensions>
          <gpxtpx:TrackPointExtension xmlns:gpxtpx="http://www.garmin.com/xmlschemas/TrackPointExtension/v1">
            <gpxtpx:hr>177</gpxtpx:hr>
          </gpxtpx:TrackPointExtension>
        </extensions>
      </trkpt>
      <trkpt lat="45.5912" lon="2.96695">
        <ele>752</ele>
        <time>2013-09-01T10:39:03Z</time>
        <extensions>
          <gpxtpx:TrackPointExtension xmlns:gpxtpx="http://www.garmin.com/xmlschemas/TrackPointExtension/v1">
            <gpxtpx:hr>177</gpxtpx:hr>
          </gpxtpx:TrackPointExtension>
        </extensions>
      </trkpt>
      <trkpt lat="45.5921" lon="2.96564">
        <ele>769.4</ele>
        <time>2013-09-01T10:40:19Z</time>
        <extensions>
          <gpxtpx:TrackPointExtension xmlns:gpxtpx="http://www.garmin.com/xmlschemas/TrackPointExtension/v1">
            <gpxtpx:hr>180</gpxtpx:hr>
          </gpxtpx:TrackPointExtension>
        </extensions>
      </trkpt>
      <trkpt lat="45.5925" lon="2.96564">
        <ele>772.8</ele>
        <time>2013-09-01T10:40:41Z</time>
        <extensions>
          <gpxtpx:TrackPointExtension xmlns:gpxtpx="http://www.garmin.com/xmlschemas/TrackPointExtension/v1">
            <gpxtpx:hr>178</gpxtpx:hr>
          </gpxtpx:TrackPointExtension>
        </extensions>
      </trkpt>
      <trkpt lat="45.59336" lon="2.96792">
        <ele>796</ele>
        <time>2013-09-01T10:42:21Z</time>
        <extensions>
          <gpxtpx:TrackPointExtension xmlns:gpxtpx="http://www.garmin.com/xmlschemas/TrackPointExtension/v1">
            <gpxtpx:hr>182</gpxtpx:hr>
          </gpxtpx:TrackPointExtension>
        </extensions>
      </trkpt>
      <trkpt lat="45.59342" lon="2.96912">
        <ele>796</ele>
        <time>2013-09-01T10:42:43Z</time>
        <extensions>
          <gpxtpx:TrackPointExtension xmlns:gpxtpx="http://www.garmin.com/xmlschemas/TrackPointExtension/v1">
            <gpxtpx:hr>179</gpxtpx:hr>
          </gpxtpx:TrackPointExtension>
        </extensions>
      </trkpt>
      <trkpt lat="45.59388" lon="2.97012">
        <ele>800.4</ele>
        <time>2013-09-01T10:43:05Z</time>
        <extensions>
          <gpxtpx:TrackPointExtension xmlns:gpxtpx="http://www.garmin.com/xmlschemas/TrackPointExtension/v1">
            <gpxtpx:hr>178</gpxtpx:hr>
          </gpxtpx:TrackPointExtension>
        </extensions>
      </trkpt>
      <trkpt lat="45.59406" lon="2.97208">
        <ele>802.6</ele>
        <time>2013-09-01T10:43:42Z</time>
        <extensions>
          <gpxtpx:TrackPointExtension xmlns:gpxtpx="http://www.garmin.com/xmlschemas/TrackPointExtension/v1">
            <gpxtpx:hr>173</gpxtpx:hr>
          </gpxtpx:TrackPointExtension>
        </extensions>
      </trkpt>
      <trkpt lat="45.59466" lon="2.9728">
        <ele>803</ele>
        <time>2013-09-01T10:44:02Z</time>
        <extensions>
          <gpxtpx:TrackPointExtension xmlns:gpxtpx="http://www.garmin.com/xmlschemas/TrackPointExtension/v1">
            <gpxtpx:hr>169</gpxtpx:hr>
          </gpxtpx:TrackPointExtension>
        </extensions>
      </trkpt>
      <trkpt lat="45.59541" lon="2.97348">
        <ele>804.6</ele>
        <time>2013-09-01T10:44:24Z</time>
        <extensions>
          <gpxtpx:TrackPointExtension xmlns:gpxtpx="http://www.garmin.com/xmlschemas/TrackPointExtension/v1">
            <gpxtpx:hr>164</gpxtpx:hr>
          </gpxtpx:TrackPointExtension>
        </extensions>
      </trkpt>
      <trkpt lat="45.59574" lon="2.97448">
        <ele>806.2</ele>
        <time>2013-09-01T10:44:45Z</time>
        <extensions>
          <gpxtpx:TrackPointExtension xmlns:gpxtpx="http://www.garmin.com/xmlschemas/TrackPointExtension/v1">
            <gpxtpx:hr>161</gpxtpx:hr>
          </gpxtpx:TrackPointExtension>
        </extensions>
      </trkpt>
      <trkpt lat="45.5961" lon="2.97484">
        <ele>811.6</ele>
        <time>2013-09-01T10:45:07Z</time>
        <extensions>
          <gpxtpx:TrackPointExtension xmlns:gpxtpx="http://www.garmin.com/xmlschemas/TrackPointExtension/v1">
            <gpxtpx:hr>170</gpxtpx:hr>
          </gpxtpx:TrackPointExtension>
        </extensions>
      </trkpt>
      <trkpt lat="45.59659" lon="2.97551">
        <ele>818.2</ele>
        <time>2013-09-01T10:45:42Z</time>
        <extensions>
          <gpxtpx:TrackPointExtension xmlns:gpxtpx="http://www.garmin.com/xmlschemas/TrackPointExtension/v1">
            <gpxtpx:hr>176</gpxtpx:hr>
          </gpxtpx:TrackPointExtension>
        </extensions>
      </trkpt>
      <trkpt lat="45.59694" lon="2.97955">
        <ele>847</ele>
        <time>2013-09-01T10:48:02Z</time>
        <extensions>
          <gpxtpx:TrackPointExtension xmlns:gpxtpx="http://www.garmin.com/xmlschemas/TrackPointExtension/v1">
            <gpxtpx:hr>181</gpxtpx:hr>
          </gpxtpx:TrackPointExtension>
        </extensions>
      </trkpt>
      <trkpt lat="45.59824" lon="2.98004">
        <ele>863.6</ele>
        <time>2013-09-01T10:49:12Z</time>
        <extensions>
          <gpxtpx:TrackPointExtension xmlns:gpxtpx="http://www.garmin.com/xmlschemas/TrackPointExtension/v1">
            <gpxtpx:hr>183</gpxtpx:hr>
          </gpxtpx:TrackPointExtension>
        </extensions>
      </trkpt>
      <trkpt lat="45.60038" lon="2.9812">
        <ele>872</ele>
        <time>2013-09-01T10:50:27Z</time>
        <extensions>
          <gpxtpx:TrackPointExtension xmlns:gpxtpx="http://www.garmin.com/xmlschemas/TrackPointExtension/v1">
            <gpxtpx:hr>174</gpxtpx:hr>
          </gpxtpx:TrackPointExtension>
        </extensions>
      </trkpt>
      <trkpt lat="45.60194" lon="2.98184">
        <ele>874</ele>
        <time>2013-09-01T10:51:13Z</time>
        <extensions>
          <gpxtpx:TrackPointExtension xmlns:gpxtpx="http://www.garmin.com/xmlschemas/TrackPointExtension/v1">
            <gpxtpx:hr>159</gpxtpx:hr>
          </gpxtpx:TrackPointExtension>
        </extensions>
      </trkpt>
      <trkpt lat="45.60263" lon="2.98179">
        <ele>940.1</ele>
        <time>2013-09-01T10:51:48Z</time>
      </trkpt>
      <trkpt lat="45.60278" lon="2.98191">
        <ele>936.9</ele>
        <time>2013-09-01T10:51:55Z</time>
      </trkpt>
      <trkpt lat="45.60297" lon="2.98169">
        <ele>935.3</ele>
        <time>2013-09-01T10:52:04Z</time>
      </trkpt>
      <trkpt lat="45.60358" lon="2.98163">
        <ele>925.3</ele>
        <time>2013-09-01T10:52:28Z</time>
      </trkpt>
      <trkpt lat="45.60446" lon="2.98161">
        <ele>906.8</ele>
        <time>2013-09-01T10:53:02Z</time>
      </trkpt>
      <trkpt lat="45.60508" lon="2.98189">
        <ele>885.3</ele>
        <time>2013-09-01T10:53:28Z</time>
      </trkpt>
      <trkpt lat="45.60543" lon="2.98236">
        <ele>877</ele>
        <time>2013-09-01T10:53:47Z</time>
      </trkpt>
      <trkpt lat="45.6054" lon="2.98292">
        <ele>874</ele>
        <time>2013-09-01T10:54:02Z</time>
      </trkpt>
      <trkpt lat="45.60521" lon="2.98333">
        <ele>870.1</ele>
        <time>2013-09-01T10:54:16Z</time>
      </trkpt>
      <trkpt lat="45.6054" lon="2.98345">
        <ele>870.9</ele>
        <time>2013-09-01T10:54:24Z</time>
      </trkpt>
      <trkpt lat="45.60556" lon="2.98369">
        <ele>872.4</ele>
        <time>2013-09-01T10:54:33Z</time>
      </trkpt>
      <trkpt lat="45.60564" lon="2.984">
        <ele>874</ele>
        <time>2013-09-01T10:54:42Z</time>
      </trkpt>
      <trkpt lat="45.60556" lon="2.98532">
        <ele>876</ele>
        <time>2013-09-01T10:55:18Z</time>
      </trkpt>
      <trkpt lat="45.60563" lon="2.9861">
        <ele>879.7</ele>
        <time>2013-09-01T10:55:39Z</time>
      </trkpt>
      <trkpt lat="45.60563" lon="2.98632">
        <ele>880</ele>
        <time>2013-09-01T10:55:45Z</time>
      </trkpt>
      <trkpt lat="45.60552" lon="2.98677">
        <ele>878.2</ele>
        <time>2013-09-01T10:55:58Z</time>
      </trkpt>
      <trkpt lat="45.60559" lon="2.98702">
        <ele>879.3</ele>
        <time>2013-09-01T10:56:05Z</time>
      </trkpt>
      <trkpt lat="45.60575" lon="2.98741">
        <ele>882.9</ele>
        <time>2013-09-01T10:56:17Z</time>
      </trkpt>
      <trkpt lat="45.60597" lon="2.98781">
        <ele>886</ele>
        <time>2013-09-01T10:56:31Z</time>
      </trkpt>
      <trkpt lat="45.60607" lon="2.98789">
        <ele>887.5</ele>
        <time>2013-09-01T10:56:36Z</time>
      </trkpt>
      <trkpt lat="45.60625" lon="2.98791">
        <ele>891.2</ele>
        <time>2013-09-01T10:56:43Z</time>
      </trkpt>
      <trkpt lat="45.60637" lon="2.9879">
        <ele>893.7</ele>
        <time>2013-09-01T10:56:47Z</time>
      </trkpt>
      <trkpt lat="45.60712" lon="2.98717">
        <ele>907.3</ele>
        <time>2013-09-01T10:57:23Z</time>
      </trkpt>
      <trkpt lat="45.60728" lon="2.98718">
        <ele>909.9</ele>
        <time>2013-09-01T10:57:29Z</time>
      </trkpt>
      <trkpt lat="45.60759" lon="2.98751">
        <ele>913.8</ele>
        <time>2013-09-01T10:57:44Z</time>
      </trkpt>
      <trkpt lat="45.60789" lon="2.98802">
        <ele>915.4</ele>
        <time>2013-09-01T10:58:02Z</time>
      </trkpt>
      <trkpt lat="45.6082" lon="2.98904">
        <ele>915.2</ele>
        <time>2013-09-01T10:58:32Z</time>
      </trkpt>
      <trkpt lat="45.60881" lon="2.99187">
        <ele>924.4</ele>
        <time>2013-09-01T10:59:52Z</time>
      </trkpt>
      <trkpt lat="45.6089" lon="2.99251">
        <ele>926.4</ele>
        <time>2013-09-01T11:00:10Z</time>
      </trkpt>
      <trkpt lat="45.60905" lon="2.99324">
        <ele>925</ele>
        <time>2013-09-01T11:00:30Z</time>
      </trkpt>
      <trkpt lat="45.60954" lon="2.99472">
        <ele>912</ele>
        <time>2013-09-01T11:01:15Z</time>
      </trkpt>
      <trkpt lat="45.6099" lon="2.99446">
        <ele>915.8</ele>
        <time>2013-09-01T11:01:31Z</time>
      </trkpt>
      <trkpt lat="45.61061" lon="2.99381">
        <ele>925.2</ele>
        <time>2013-09-01T11:02:04Z</time>
      </trkpt>
      <trkpt lat="45.61097" lon="2.99329">
        <ele>935.7</ele>
        <time>2013-09-01T11:02:24Z</time>
      </trkpt>
      <trkpt lat="45.61313" lon="2.99303">
        <ele>923.9</ele>
        <time>2013-09-01T11:03:47Z</time>
      </trkpt>
      <trkpt lat="45.61503" lon="2.99249">
        <ele>923.5</ele>
        <time>2013-09-01T11:05:03Z</time>
      </trkpt>
      <trkpt lat="45.61624" lon="2.99243">
        <ele>922.5</ele>
        <time>2013-09-01T11:05:49Z</time>
      </trkpt>
      <trkpt lat="45.61744" lon="2.99222">
        <ele>916.9</ele>
        <time>2013-09-01T11:06:36Z</time>
      </trkpt>
      <trkpt lat="45.61827" lon="2.99235">
        <ele>920.3</ele>
        <time>2013-09-01T11:07:08Z</time>
      </trkpt>
      <trkpt lat="45.61859" lon="2.99266">
        <ele>922.4</ele>
        <time>2013-09-01T11:07:23Z</time>
      </trkpt>
      <trkpt lat="45.61917" lon="2.99382">
        <ele>926.9</ele>
        <time>2013-09-01T11:08:02Z</time>
      </trkpt>
      <trkpt lat="45.61924" lon="2.99584">
        <ele>919.3</ele>
        <time>2013-09-01T11:08:56Z</time>
      </trkpt>
      <trkpt lat="45.61953" lon="2.99589">
        <ele>924.4</ele>
        <time>2013-09-01T11:09:08Z</time>
      </trkpt>
      <trkpt lat="45.61963" lon="2.99612">
        <ele>926.6</ele>
        <time>2013-09-01T11:09:15Z</time>
      </trkpt>
      <trkpt lat="45.61962" lon="2.99656">
        <ele>926.9</ele>
        <time>2013-09-01T11:09:27Z</time>
      </trkpt>
      <trkpt lat="45.61991" lon="2.99681">
        <ele>930.5</ele>
        <time>2013-09-01T11:09:40Z</time>
      </trkpt>
      <trkpt lat="45.6201" lon="2.9968">
        <ele>931.4</ele>
        <time>2013-09-01T11:09:48Z</time>
      </trkpt>
      <trkpt lat="45.62042" lon="2.99675">
        <ele>931.4</ele>
        <time>2013-09-01T11:10:00Z</time>
      </trkpt>
      <trkpt lat="45.62093" lon="2.99636">
        <ele>927.9</ele>
        <time>2013-09-01T11:10:23Z</time>
      </trkpt>
      <trkpt lat="45.62109" lon="2.99614">
        <ele>926.3</ele>
        <time>2013-09-01T11:10:31Z</time>
      </trkpt>
      <trkpt lat="45.62135" lon="2.99552">
        <ele>923</ele>
        <time>2013-09-01T11:10:51Z</time>
      </trkpt>
      <trkpt lat="45.62153" lon="2.99396">
        <ele>917.6</ele>
        <time>2013-09-01T11:11:34Z</time>
      </trkpt>
      <trkpt lat="45.62148" lon="2.99334">
        <ele>917.5</ele>
        <time>2013-09-01T11:11:51Z</time>
      </trkpt>
      <trkpt lat="45.62126" lon="2.99264">
        <ele>917.6</ele>
        <time>2013-09-01T11:12:11Z</time>
      </trkpt>
      <trkpt lat="45.62118" lon="2.9911">
        <ele>905.8</ele>
        <time>2013-09-01T11:12:53Z</time>
      </trkpt>
      <trkpt lat="45.6215" lon="2.99122">
        <ele>897.1</ele>
        <time>2013-09-01T11:13:06Z</time>
      </trkpt>
      <trkpt lat="45.62203" lon="2.9911">
        <ele>884.1</ele>
        <time>2013-09-01T11:13:28Z</time>
      </trkpt>
      <trkpt lat="45.62222" lon="2.99091">
        <ele>879.6</ele>
        <time>2013-09-01T11:13:37Z</time>
      </trkpt>
      <trkpt lat="45.62242" lon="2.99069">
        <ele>875.3</ele>
        <time>2013-09-01T11:13:47Z</time>
      </trkpt>
      <trkpt lat="45.62309" lon="2.99079">
        <ele>859.8</ele>
        <time>2013-09-01T11:14:13Z</time>
      </trkpt>
      <trkpt lat="45.62339" lon="2.99065">
        <ele>854.7</ele>
        <time>2013-09-01T11:14:26Z</time>
      </trkpt>
      <trkpt lat="45.62373" lon="2.9909">
        <ele>845.1</ele>
        <time>2013-09-01T11:14:41Z</time>
      </trkpt>
      <trkpt lat="45.62391" lon="2.99097">
        <ele>841.3</ele>
        <time>2013-09-01T11:14:48Z</time>
      </trkpt>
      <trkpt lat="45.62396" lon="2.99057">
        <ele>844.1</ele>
        <time>2013-09-01T11:14:59Z</time>
      </trkpt>
      <trkpt lat="45.62404" lon="2.99032">
        <ele>844.2</ele>
        <time>2013-09-01T11:15:07Z</time>
      </trkpt>
      <trkpt lat="45.62414" lon="2.9902">
        <ele>842.8</ele>
        <time>2013-09-01T11:15:12Z</time>
      </trkpt>
      <trkpt lat="45.62447" lon="2.99013">
        <ele>844</ele>
        <time>2013-09-01T11:15:25Z</time>
      </trkpt>
      <trkpt lat="45.62448" lon="2.98971">
        <ele>843.4</ele>
        <time>2013-09-01T11:15:36Z</time>
      </trkpt>
      <trkpt lat="45.62461" lon="2.98939">
        <ele>843.2</ele>
        <time>2013-09-01T11:15:46Z</time>
      </trkpt>
      <trkpt lat="45.62481" lon="2.98926">
        <ele>846.1</ele>
        <time>2013-09-01T11:15:54Z</time>
      </trkpt>
      <trkpt lat="45.62507" lon="2.9892">
        <ele>852.6</ele>
        <time>2013-09-01T11:16:05Z</time>
      </trkpt>
      <trkpt lat="45.62543" lon="2.98901">
        <ele>859.6</ele>
        <time>2013-09-01T11:16:20Z</time>
      </trkpt>
      <trkpt lat="45.62584" lon="2.98869">
        <ele>856.7</ele>
        <time>2013-09-01T11:16:38Z</time>
      </trkpt>
      <trkpt lat="45.62612" lon="2.98876">
        <ele>859.6</ele>
        <time>2013-09-01T11:16:49Z</time>
      </trkpt>
      <trkpt lat="45.62626" lon="2.98864">
        <ele>855.6</ele>
        <time>2013-09-01T11:16:56Z</time>
      </trkpt>
      <trkpt lat="45.62759" lon="2.98978">
        <ele>856.5</ele>
        <time>2013-09-01T11:17:56Z</time>
      </trkpt>
      <trkpt lat="45.62778" lon="2.99009">
        <ele>856.6</ele>
        <time>2013-09-01T11:18:07Z</time>
      </trkpt>
      <trkpt lat="45.62802" lon="2.99032">
        <ele>856.6</ele>
        <time>2013-09-01T11:18:18Z</time>
      </trkpt>
      <trkpt lat="45.62855" lon="2.99055">
        <ele>854.2</ele>
        <time>2013-09-01T11:18:39Z</time>
      </trkpt>
      <trkpt lat="45.6298" lon="2.99117">
        <ele>857.4</ele>
        <time>2013-09-01T11:19:30Z</time>
      </trkpt>
      <trkpt lat="45.63028" lon="2.99104">
        <ele>860.2</ele>
        <time>2013-09-01T11:19:50Z</time>
      </trkpt>
      <trkpt lat="45.63147" lon="2.99096">
        <ele>865.7</ele>
        <time>2013-09-01T11:20:35Z</time>
      </trkpt>
      <trkpt lat="45.63207" lon="2.99145">
        <ele>866.2</ele>
        <time>2013-09-01T11:21:02Z</time>
      </trkpt>
      <trkpt lat="45.63391" lon="2.99043">
        <ele>871</ele>
        <time>2013-09-01T11:22:18Z</time>
      </trkpt>
      <trkpt lat="45.63455" lon="2.99026">
        <ele>871.5</ele>
        <time>2013-09-01T11:22:44Z</time>
      </trkpt>
      <trkpt lat="45.63579" lon="2.98981">
        <ele>873.1</ele>
        <time>2013-09-01T11:23:33Z</time>
      </trkpt>
      <trkpt lat="45.63678" lon="2.98917">
        <ele>875.5</ele>
        <time>2013-09-01T11:24:15Z</time>
      </trkpt>
      <trkpt lat="45.63707" lon="2.99102">
        <ele>876.1</ele>
        <time>2013-09-01T11:25:06Z</time>
      </trkpt>
      <trkpt lat="45.63739" lon="2.99166">
        <ele>877.1</ele>
        <time>2013-09-01T11:25:28Z</time>
      </trkpt>
      <trkpt lat="45.63803" lon="2.9931">
        <ele>877</ele>
        <time>2013-09-01T11:26:14Z</time>
      </trkpt>
      <trkpt lat="45.63861" lon="2.99359">
        <ele>879.1</ele>
        <time>2013-09-01T11:26:40Z</time>
      </trkpt>
      <trkpt lat="45.63923" lon="2.9948">
        <ele>888.9</ele>
        <time>2013-09-01T11:27:20Z</time>
      </trkpt>
      <trkpt lat="45.6396" lon="2.99534">
        <ele>894.3</ele>
        <time>2013-09-01T11:27:41Z</time>
      </trkpt>
      <trkpt lat="45.63963" lon="2.99585">
        <ele>896.8</ele>
        <time>2013-09-01T11:27:55Z</time>
      </trkpt>
      <trkpt lat="45.6395" lon="2.99647">
        <ele>901.5</ele>
        <time>2013-09-01T11:28:13Z</time>
      </trkpt>
      <trkpt lat="45.63934" lon="2.99657">
        <ele>903</ele>
        <time>2013-09-01T11:28:19Z</time>
      </trkpt>
      <trkpt lat="45.6392" lon="2.99659">
        <ele>904.1</ele>
        <time>2013-09-01T11:28:25Z</time>
      </trkpt>
      <trkpt lat="45.63919" lon="2.99673">
        <ele>905.2</ele>
        <time>2013-09-01T11:28:28Z</time>
      </trkpt>
      <trkpt lat="45.6397" lon="2.99747">
        <ele>904.5</ele>
        <time>2013-09-01T11:28:57Z</time>
      </trkpt>
      <trkpt lat="45.63997" lon="2.9978">
        <ele>905</ele>
        <time>2013-09-01T11:29:10Z</time>
      </trkpt>
      <trkpt lat="45.63975" lon="2.99834">
        <ele>905.5</ele>
        <time>2013-09-01T11:29:27Z</time>
      </trkpt>
      <trkpt lat="45.63983" lon="2.99961">
        <ele>904</ele>
        <time>2013-09-01T11:30:02Z</time>
      </trkpt>
      <trkpt lat="45.63965" lon="3.0017">
        <ele>910.1</ele>
        <time>2013-09-01T11:30:59Z</time>
      </trkpt>
      <trkpt lat="45.6396" lon="3.0023">
        <ele>915.9</ele>
        <time>2013-09-01T11:31:15Z</time>
      </trkpt>
      <trkpt lat="45.64004" lon="3.00293">
        <ele>915.4</ele>
        <time>2013-09-01T11:31:39Z</time>
      </trkpt>
      <trkpt lat="45.64014" lon="3.00382">
        <ele>911.2</ele>
        <time>2013-09-01T11:32:03Z</time>
      </trkpt>
      <trkpt lat="45.63998" lon="3.00419">
        <ele>909.8</ele>
        <time>2013-09-01T11:32:15Z</time>
      </trkpt>
      <trkpt lat="45.64031" lon="3.00394">
        <ele>907.8</ele>
        <time>2013-09-01T11:32:30Z</time>
      </trkpt>
      <trkpt lat="45.64062" lon="3.00371">
        <ele>904.1</ele>
        <time>2013-09-01T11:32:43Z</time>
      </trkpt>
      <trkpt lat="45.64091" lon="3.00384">
        <ele>897</ele>
        <time>2013-09-01T11:32:55Z</time>
      </trkpt>
      <trkpt lat="45.64115" lon="3.00369">
        <ele>893.1</ele>
        <time>2013-09-01T11:33:06Z</time>
      </trkpt>
      <trkpt lat="45.64188" lon="3.00376">
        <ele>887</ele>
        <time>2013-09-01T11:33:34Z</time>
      </trkpt>
      <trkpt lat="45.64221" lon="3.00357">
        <ele>888.1</ele>
        <time>2013-09-01T11:33:48Z</time>
      </trkpt>
      <trkpt lat="45.64252" lon="3.00382">
        <ele>889.5</ele>
        <time>2013-09-01T11:34:01Z</time>
      </trkpt>
      <trkpt lat="45.64273" lon="3.00458">
        <ele>890.8</ele>
        <time>2013-09-01T11:34:24Z</time>
      </trkpt>
      <trkpt lat="45.643" lon="3.00508">
        <ele>894.6</ele>
        <time>2013-09-01T11:34:41Z</time>
      </trkpt>
      <trkpt lat="45.64325" lon="3.00495">
        <ele>899.1</ele>
        <time>2013-09-01T11:34:51Z</time>
      </trkpt>
      <trkpt lat="45.64325" lon="3.00477">
        <ele>899.1</ele>
        <time>2013-09-01T11:34:56Z</time>
      </trkpt>
      <trkpt lat="45.64311" lon="3.00454">
        <ele>896.5</ele>
        <time>2013-09-01T11:35:05Z</time>
      </trkpt>
      <trkpt lat="45.64309" lon="3.00421">
        <ele>896.5</ele>
        <time>2013-09-01T11:35:13Z</time>
      </trkpt>
      <trkpt lat="45.64327" lon="3.00399">
        <ele>900.3</ele>
        <time>2013-09-01T11:35:23Z</time>
      </trkpt>
      <trkpt lat="45.64354" lon="3.00391">
        <ele>904.6</ele>
        <time>2013-09-01T11:35:33Z</time>
      </trkpt>
      <trkpt lat="45.6439" lon="3.00386">
        <ele>910</ele>
        <time>2013-09-01T11:35:48Z</time>
      </trkpt>
      <trkpt lat="45.64428" lon="3.00366">
        <ele>913.2</ele>
        <time>2013-09-01T11:36:03Z</time>
      </trkpt>
      <trkpt lat="45.64503" lon="3.0036">
        <ele>919.7</ele>
        <time>2013-09-01T11:36:32Z</time>
      </trkpt>
      <trkpt lat="45.64634" lon="3.00337">
        <ele>925</ele>
        <time>2013-09-01T11:37:23Z</time>
      </trkpt>
      <trkpt lat="45.64664" lon="3.00323">
        <ele>926.5</ele>
        <time>2013-09-01T11:37:35Z</time>
      </trkpt>
      <trkpt lat="45.64705" lon="3.00329">
        <ele>930.5</ele>
        <time>2013-09-01T11:37:52Z</time>
      </trkpt>
      <trkpt lat="45.64739" lon="3.00282">
        <ele>929.9</ele>
        <time>2013-09-01T11:38:10Z</time>
      </trkpt>
      <trkpt lat="45.64818" lon="3.00165">
        <ele>934.6</ele>
        <time>2013-09-01T11:38:54Z</time>
      </trkpt>
      <trkpt lat="45.64878" lon="3.00107">
        <ele>941</ele>
        <time>2013-09-01T11:39:22Z</time>
      </trkpt>
      <trkpt lat="45.65042" lon="3.00052">
        <ele>960.8</ele>
        <time>2013-09-01T11:40:27Z</time>
      </trkpt>
      <trkpt lat="45.65088" lon="3.00025">
        <ele>961.6</ele>
        <time>2013-09-01T11:40:47Z</time>
      </trkpt>
      <trkpt lat="45.65185" lon="2.99998">
        <ele>962.8</ele>
        <time>2013-09-01T11:41:25Z</time>
      </trkpt>
      <trkpt lat="45.65309" lon="3.00021">
        <ele>964.3</ele>
        <time>2013-09-01T11:42:13Z</time>
      </trkpt>
      <trkpt lat="45.65411" lon="3.00013">
        <ele>965</ele>
        <time>2013-09-01T11:42:53Z</time>
      </trkpt>
      <trkpt lat="45.65662" lon="2.99928">
        <ele>964.1</ele>
        <time>2013-09-01T11:44:32Z</time>
      </trkpt>
      <trkpt lat="45.65764" lon="2.99959">
        <ele>953.3</ele>
        <time>2013-09-01T11:45:13Z</time>
      </trkpt>
      <trkpt lat="45.65799" lon="2.99978">
        <ele>951.9</ele>
        <time>2013-09-01T11:45:28Z</time>
      </trkpt>
      <trkpt lat="45.6586" lon="2.99964">
        <ele>950.8</ele>
        <time>2013-09-01T11:45:51Z</time>
      </trkpt>
      <trkpt lat="45.65937" lon="2.99972">
        <ele>945.3</ele>
        <time>2013-09-01T11:46:21Z</time>
      </trkpt>
      <trkpt lat="45.66012" lon="2.99946">
        <ele>938.2</ele>
        <time>2013-09-01T11:46:51Z</time>
      </trkpt>
      <trkpt lat="45.66078" lon="2.99952">
        <ele>931.1</ele>
        <time>2013-09-01T11:47:17Z</time>
      </trkpt>
      <trkpt lat="45.66133" lon="2.99976">
        <ele>927.6</ele>
        <time>2013-09-01T11:47:39Z</time>
      </trkpt>
      <trkpt lat="45.66407" lon="3.00042">
        <ele>895.9</ele>
        <time>2013-09-01T11:49:27Z</time>
      </trkpt>
      <trkpt lat="45.66426" lon="3.00113">
        <ele>891.8</ele>
        <time>2013-09-01T11:49:48Z</time>
      </trkpt>
      <trkpt lat="45.66428" lon="3.00142">
        <ele>890.6</ele>
        <time>2013-09-01T11:49:56Z</time>
      </trkpt>
      <trkpt lat="45.66439" lon="3.00181">
        <ele>886.1</ele>
        <time>2013-09-01T11:50:07Z</time>
      </trkpt>
      <trkpt lat="45.66448" lon="3.00178">
        <ele>883.1</ele>
        <time>2013-09-01T11:50:11Z</time>
      </trkpt>
      <trkpt lat="45.66464" lon="3.00159">
        <ele>878.6</ele>
        <time>2013-09-01T11:50:19Z</time>
      </trkpt>
      <trkpt lat="45.66481" lon="3.00106">
        <ele>874.8</ele>
        <time>2013-09-01T11:50:35Z</time>
      </trkpt>
      <trkpt lat="45.6649" lon="3.00069">
        <ele>872.9</ele>
        <time>2013-09-01T11:50:45Z</time>
      </trkpt>
      <trkpt lat="45.66501" lon="3.0005">
        <ele>869.1</ele>
        <time>2013-09-01T11:50:52Z</time>
      </trkpt>
      <trkpt lat="45.66518" lon="3.00052">
        <ele>862.9</ele>
        <time>2013-09-01T11:50:59Z</time>
      </trkpt>
      <trkpt lat="45.6654" lon="3.00128">
        <ele>854</ele>
        <time>2013-09-01T11:51:21Z</time>
      </trkpt>
      <trkpt lat="45.66566" lon="3.00203">
        <ele>842.8</ele>
        <time>2013-09-01T11:51:45Z</time>
      </trkpt>
      <trkpt lat="45.66584" lon="3.0019">
        <ele>839.7</ele>
        <time>2013-09-01T11:51:52Z</time>
      </trkpt>
      <trkpt lat="45.66618" lon="3.00184">
        <ele>835.6</ele>
        <time>2013-09-01T11:52:06Z</time>
      </trkpt>
      <trkpt lat="45.6664" lon="3.00137">
        <ele>834.5</ele>
        <time>2013-09-01T11:52:21Z</time>
      </trkpt>
      <trkpt lat="45.66674" lon="3.00061">
        <ele>832.2</ele>
        <time>2013-09-01T11:52:45Z</time>
      </trkpt>
      <trkpt lat="45.66694" lon="3.00044">
        <ele>831.7</ele>
        <time>2013-09-01T11:52:54Z</time>
      </trkpt>
      <trkpt lat="45.66743" lon="3.00048">
        <ele>829.8</ele>
        <time>2013-09-01T11:53:13Z</time>
      </trkpt>
      <trkpt lat="45.66774" lon="3.00041">
        <ele>828.9</ele>
        <time>2013-09-01T11:53:25Z</time>
      </trkpt>
      <trkpt lat="45.66799" lon="3.00049">
        <ele>827.7</ele>
        <time>2013-09-01T11:53:35Z</time>
      </trkpt>
      <trkpt lat="45.66821" lon="3.00003">
        <ele>828.1</ele>
        <time>2013-09-01T11:53:50Z</time>
      </trkpt>
      <trkpt lat="45.66834" lon="2.99946">
        <ele>829.2</ele>
        <time>2013-09-01T11:54:07Z</time>
      </trkpt>
      <trkpt lat="45.6691" lon="2.99914">
        <ele>828.5</ele>
        <time>2013-09-01T11:54:37Z</time>
      </trkpt>
      <trkpt lat="45.66985" lon="2.99754">
        <ele>836.9</ele>
        <time>2013-09-01T11:55:29Z</time>
      </trkpt>
      <trkpt lat="45.67018" lon="2.99739">
        <ele>837.4</ele>
        <time>2013-09-01T11:55:42Z</time>
      </trkpt>
      <trkpt lat="45.6707" lon="2.9964">
        <ele>839.9</ele>
        <time>2013-09-01T11:56:16Z</time>
      </trkpt>
      <trkpt lat="45.67079" lon="2.99551">
        <ele>842.6</ele>
        <time>2013-09-01T11:56:40Z</time>
      </trkpt>
      <trkpt lat="45.67068" lon="2.99484">
        <ele>845.3</ele>
        <time>2013-09-01T11:56:59Z</time>
      </trkpt>
      <trkpt lat="45.67082" lon="2.99346">
        <ele>849.9</ele>
        <time>2013-09-01T11:57:36Z</time>
      </trkpt>
      <trkpt lat="45.67156" lon="2.99297">
        <ele>853.2</ele>
        <time>2013-09-01T11:58:08Z</time>
      </trkpt>
      <trkpt lat="45.67224" lon="2.99216">
        <ele>854.1</ele>
        <time>2013-09-01T11:58:42Z</time>
      </trkpt>
      <trkpt lat="45.67244" lon="2.99232">
        <ele>852.6</ele>
        <time>2013-09-01T11:58:51Z</time>
      </trkpt>
      <trkpt lat="45.67293" lon="2.99328">
        <ele>850</ele>
        <time>2013-09-01T11:59:23Z</time>
      </trkpt>
      <trkpt lat="45.67357" lon="2.99333">
        <ele>850</ele>
        <time>2013-09-01T11:59:48Z</time>
      </trkpt>
      <trkpt lat="45.67381" lon="2.99312">
        <ele>850</ele>
        <time>2013-09-01T11:59:58Z</time>
      </trkpt>
      <trkpt lat="45.67391" lon="2.99292">
        <ele>850.2</ele>
        <time>2013-09-01T12:00:05Z</time>
      </trkpt>
      <trkpt lat="45.674" lon="2.99221">
        <ele>851</ele>
        <time>2013-09-01T12:00:25Z</time>
      </trkpt>
      <trkpt lat="45.67409" lon="2.99188">
        <ele>852.1</ele>
        <time>2013-09-01T12:00:35Z</time>
      </trkpt>
      <trkpt lat="45.67501" lon="2.99164">
        <ele>857.7</ele>
        <time>2013-09-01T12:01:11Z</time>
      </trkpt>
      <trkpt lat="45.67533" lon="2.99102">
        <ele>858.4</ele>
        <time>2013-09-01T12:01:32Z</time>
      </trkpt>
      <trkpt lat="45.67544" lon="2.98975">
        <ele>859.9</ele>
        <time>2013-09-01T12:02:06Z</time>
      </trkpt>
      <trkpt lat="45.67603" lon="2.98855">
        <ele>860</ele>
        <time>2013-09-01T12:02:46Z</time>
      </trkpt>
      <trkpt lat="45.67656" lon="2.98816">
        <ele>860.9</ele>
        <time>2013-09-01T12:03:08Z</time>
      </trkpt>
      <trkpt lat="45.67709" lon="2.9866">
        <ele>868.4</ele>
        <time>2013-09-01T12:03:56Z</time>
      </trkpt>
      <trkpt lat="45.67772" lon="2.98554">
        <ele>873.8</ele>
        <time>2013-09-01T12:04:33Z</time>
      </trkpt>
      <trkpt lat="45.67862" lon="2.98447">
        <ele>879.5</ele>
        <time>2013-09-01T12:05:18Z</time>
      </trkpt>
      <trkpt lat="45.67929" lon="2.98216">
        <ele>883.3</ele>
        <time>2013-09-01T12:06:26Z</time>
      </trkpt>
      <trkpt lat="45.6793" lon="2.98112">
        <ele>883.5</ele>
        <time>2013-09-01T12:06:54Z</time>
      </trkpt>
      <trkpt lat="45.67995" lon="2.98044">
        <ele>888</ele>
        <time>2013-09-01T12:07:25Z</time>
      </trkpt>
      <trkpt lat="45.6804" lon="2.9794">
        <ele>893.3</ele>
        <time>2013-09-01T12:07:58Z</time>
      </trkpt>
      <trkpt lat="45.68071" lon="2.97891">
        <ele>896.9</ele>
        <time>2013-09-01T12:08:16Z</time>
      </trkpt>
      <trkpt lat="45.68115" lon="2.97839">
        <ele>899.9</ele>
        <time>2013-09-01T12:08:38Z</time>
      </trkpt>
      <trkpt lat="45.68166" lon="2.97925">
        <ele>898.4</ele>
        <time>2013-09-01T12:09:09Z</time>
      </trkpt>
      <trkpt lat="45.6836" lon="2.97964">
        <ele>906.9</ele>
        <time>2013-09-01T12:10:24Z</time>
      </trkpt>
      <trkpt lat="45.68408" lon="2.97982">
        <ele>909.9</ele>
        <time>2013-09-01T12:10:44Z</time>
      </trkpt>
      <trkpt lat="45.68453" lon="2.97961">
        <ele>913.5</ele>
        <time>2013-09-01T12:11:02Z</time>
      </trkpt>
      <trkpt lat="45.68532" lon="2.98034">
        <ele>914.1</ele>
        <time>2013-09-01T12:11:38Z</time>
      </trkpt>
      <trkpt lat="45.68595" lon="2.98068">
        <ele>913.5</ele>
        <time>2013-09-01T12:12:04Z</time>
      </trkpt>
      <trkpt lat="45.68613" lon="2.98169">
        <ele>910.6</ele>
        <time>2013-09-01T12:12:33Z</time>
      </trkpt>
      <trkpt lat="45.68667" lon="2.9826">
        <ele>908.3</ele>
        <time>2013-09-01T12:13:05Z</time>
      </trkpt>
      <trkpt lat="45.68676" lon="2.98312">
        <ele>906.8</ele>
        <time>2013-09-01T12:13:19Z</time>
      </trkpt>
      <trkpt lat="45.68676" lon="2.9839">
        <ele>904.2</ele>
        <time>2013-09-01T12:13:40Z</time>
      </trkpt>
      <trkpt lat="45.68692" lon="2.98431">
        <ele>903.5</ele>
        <time>2013-09-01T12:13:53Z</time>
      </trkpt>
      <trkpt lat="45.68742" lon="2.98468">
        <ele>904</ele>
        <time>2013-09-01T12:14:15Z</time>
      </trkpt>
      <trkpt lat="45.68766" lon="2.98535">
        <ele>902</ele>
        <time>2013-09-01T12:14:35Z</time>
      </trkpt>
      <trkpt lat="45.6882" lon="2.98637">
        <ele>907.2</ele>
        <time>2013-09-01T12:15:10Z</time>
      </trkpt>
      <trkpt lat="45.68884" lon="2.98676">
        <ele>911</ele>
        <time>2013-09-01T12:15:37Z</time>
      </trkpt>
      <trkpt lat="45.68935" lon="2.98681">
        <ele>912.4</ele>
        <time>2013-09-01T12:15:56Z</time>
      </trkpt>
      <trkpt lat="45.69003" lon="2.98754">
        <ele>913.6</ele>
        <time>2013-09-01T12:16:29Z</time>
      </trkpt>
      <trkpt lat="45.6903" lon="2.988">
        <ele>912.7</ele>
        <time>2013-09-01T12:16:46Z</time>
      </trkpt>
      <trkpt lat="45.69046" lon="2.9879">
        <ele>913.4</ele>
        <time>2013-09-01T12:16:53Z</time>
      </trkpt>
      <trkpt lat="45.69059" lon="2.98748">
        <ele>915.7</ele>
        <time>2013-09-01T12:17:05Z</time>
      </trkpt>
      <trkpt lat="45.69143" lon="2.98759">
        <ele>916.1</ele>
        <time>2013-09-01T12:17:38Z</time>
      </trkpt>
      <trkpt lat="45.69116" lon="2.98811">
        <ele>914.4</ele>
        <time>2013-09-01T12:17:55Z</time>
      </trkpt>
      <trkpt lat="45.69103" lon="2.98886">
        <ele>911.5</ele>
        <time>2013-09-01T12:18:16Z</time>
      </trkpt>
      <trkpt lat="45.69107" lon="2.9893">
        <ele>910.1</ele>
        <time>2013-09-01T12:18:28Z</time>
      </trkpt>
      <trkpt lat="45.69172" lon="2.99055">
        <ele>909.2</ele>
        <time>2013-09-01T12:19:10Z</time>
      </trkpt>
      <trkpt lat="45.69199" lon="2.99133">
        <ele>908.3</ele>
        <time>2013-09-01T12:19:33Z</time>
      </trkpt>
      <trkpt lat="45.69222" lon="2.99263">
        <ele>907.4</ele>
        <time>2013-09-01T12:20:10Z</time>
      </trkpt>
      <trkpt lat="45.69287" lon="2.99406">
        <ele>903.9</ele>
        <time>2013-09-01T12:20:56Z</time>
      </trkpt>
      <trkpt lat="45.69339" lon="2.99468">
        <ele>900.4</ele>
        <time>2013-09-01T12:21:22Z</time>
      </trkpt>
      <trkpt lat="45.69396" lon="2.99554">
        <ele>905</ele>
        <time>2013-09-01T12:21:54Z</time>
      </trkpt>
      <trkpt lat="45.69419" lon="2.99468">
        <ele>907.3</ele>
        <time>2013-09-01T12:22:19Z</time>
      </trkpt>
      <trkpt lat="45.69452" lon="2.99414">
        <ele>911.9</ele>
        <time>2013-09-01T12:22:38Z</time>
      </trkpt>
      <trkpt lat="45.69563" lon="2.99364">
        <ele>902.1</ele>
        <time>2013-09-01T12:23:24Z</time>
      </trkpt>
      <trkpt lat="45.6963" lon="2.9937">
        <ele>889.9</ele>
        <time>2013-09-01T12:23:50Z</time>
      </trkpt>
      <trkpt lat="45.69651" lon="2.99473">
        <ele>881.3</ele>
        <time>2013-09-01T12:24:19Z</time>
      </trkpt>
      <trkpt lat="45.69754" lon="2.99538">
        <ele>875.7</ele>
        <time>2013-09-01T12:25:02Z</time>
      </trkpt>
      <trkpt lat="45.69815" lon="2.99609">
        <ele>871.2</ele>
        <time>2013-09-01T12:25:33Z</time>
      </trkpt>
      <trkpt lat="45.69847" lon="2.99718">
        <ele>871.5</ele>
        <time>2013-09-01T12:26:05Z</time>
      </trkpt>
      <trkpt lat="45.69858" lon="2.99848">
        <ele>873.5</ele>
        <time>2013-09-01T12:26:40Z</time>
      </trkpt>
      <trkpt lat="45.6987" lon="2.99907">
        <ele>873.3</ele>
        <time>2013-09-01T12:26:57Z</time>
      </trkpt>
      <trkpt lat="45.69917" lon="2.99985">
        <ele>869.3</ele>
        <time>2013-09-01T12:27:25Z</time>
      </trkpt>
      <trkpt lat="45.69984" lon="3.00013">
        <ele>862.5</ele>
        <time>2013-09-01T12:27:51Z</time>
      </trkpt>
      <trkpt lat="45.70014" lon="3.00051">
        <ele>859.6</ele>
        <time>2013-09-01T12:28:07Z</time>
      </trkpt>
      <trkpt lat="45.70072" lon="3.00135">
        <ele>854.2</ele>
        <time>2013-09-01T12:28:39Z</time>
      </trkpt>
      <trkpt lat="45.70167" lon="3.00246">
        <ele>846.4</ele>
        <time>2013-09-01T12:29:26Z</time>
      </trkpt>
      <trkpt lat="45.70257" lon="3.00265">
        <ele>843.1</ele>
        <time>2013-09-01T12:30:02Z</time>
      </trkpt>
      <trkpt lat="45.703" lon="3.00271">
        <ele>842.1</ele>
        <time>2013-09-01T12:30:18Z</time>
      </trkpt>
      <trkpt lat="45.70318" lon="3.00279">
        <ele>841.2</ele>
        <time>2013-09-01T12:30:26Z</time>
      </trkpt>
      <trkpt lat="45.70325" lon="3.00289">
        <ele>840.6</ele>
        <time>2013-09-01T12:30:29Z</time>
      </trkpt>
      <trkpt lat="45.70367" lon="3.00266">
        <ele>841</ele>
        <time>2013-09-01T12:30:47Z</time>
      </trkpt>
      <trkpt lat="45.70376" lon="3.00251">
        <ele>842.1</ele>
        <time>2013-09-01T12:30:52Z</time>
      </trkpt>
      <trkpt lat="45.70382" lon="3.00229">
        <ele>843.9</ele>
        <time>2013-09-01T12:30:59Z</time>
      </trkpt>
      <trkpt lat="45.70408" lon="3.00223">
        <ele>846.1</ele>
        <time>2013-09-01T12:31:09Z</time>
      </trkpt>
      <trkpt lat="45.70416" lon="3.00202">
        <ele>848.9</ele>
        <time>2013-09-01T12:31:15Z</time>
      </trkpt>
      <trkpt lat="45.70426" lon="3.00194">
        <ele>850.5</ele>
        <time>2013-09-01T12:31:20Z</time>
      </trkpt>
      <trkpt lat="45.70438" lon="3.00211">
        <ele>849.4</ele>
        <time>2013-09-01T12:31:26Z</time>
      </trkpt>
      <trkpt lat="45.7046" lon="3.00234">
        <ele>847.6</ele>
        <time>2013-09-01T12:31:37Z</time>
      </trkpt>
      <trkpt lat="45.70474" lon="3.00241">
        <ele>847.4</ele>
        <time>2013-09-01T12:31:42Z</time>
      </trkpt>
      <trkpt lat="45.70494" lon="3.00238">
        <ele>848.8</ele>
        <time>2013-09-01T12:31:50Z</time>
      </trkpt>
      <trkpt lat="45.70554" lon="3.00187">
        <ele>857.7</ele>
        <time>2013-09-01T12:32:17Z</time>
      </trkpt>
      <trkpt lat="45.7057" lon="3.00168">
        <ele>859.1</ele>
        <time>2013-09-01T12:32:26Z</time>
      </trkpt>
      <trkpt lat="45.70587" lon="3.00154">
        <ele>860.1</ele>
        <time>2013-09-01T12:32:33Z</time>
      </trkpt>
      <trkpt lat="45.70609" lon="3.00158">
        <ele>858.9</ele>
        <time>2013-09-01T12:32:42Z</time>
      </trkpt>
      <trkpt lat="45.70652" lon="3.00224">
        <ele>848.7</ele>
        <time>2013-09-01T12:33:06Z</time>
      </trkpt>
      <trkpt lat="45.70656" lon="3.00259">
        <ele>844.5</ele>
        <time>2013-09-01T12:33:16Z</time>
      </trkpt>
      <trkpt lat="45.7067" lon="3.00287">
        <ele>841.8</ele>
        <time>2013-09-01T12:33:25Z</time>
      </trkpt>
      <trkpt lat="45.70676" lon="3.00304">
        <ele>840.5</ele>
        <time>2013-09-01T12:33:30Z</time>
      </trkpt>
      <trkpt lat="45.70697" lon="3.00334">
        <ele>838.5</ele>
        <time>2013-09-01T12:33:42Z</time>
      </trkpt>
      <trkpt lat="45.70748" lon="3.00342">
        <ele>836.7</ele>
        <time>2013-09-01T12:34:02Z</time>
      </trkpt>
      <trkpt lat="45.70777" lon="3.00354">
        <ele>835.6</ele>
        <time>2013-09-01T12:34:14Z</time>
      </trkpt>
      <trkpt lat="45.7105" lon="3.00354">
        <ele>843</ele>
        <time>2013-09-01T12:35:59Z</time>
      </trkpt>
      <trkpt lat="45.71141" lon="3.00373">
        <ele>846.4</ele>
        <time>2013-09-01T12:36:35Z</time>
      </trkpt>
      <trkpt lat="45.71198" lon="3.0035">
        <ele>848.8</ele>
        <time>2013-09-01T12:36:58Z</time>
      </trkpt>
      <trkpt lat="45.71392" lon="3.00401">
        <ele>861.9</ele>
        <time>2013-09-01T12:38:14Z</time>
      </trkpt>
      <trkpt lat="45.71494" lon="3.00463">
        <ele>878.6</ele>
        <time>2013-09-01T12:38:57Z</time>
      </trkpt>
      <trkpt lat="45.71532" lon="3.00498">
        <ele>886.9</ele>
        <time>2013-09-01T12:39:15Z</time>
      </trkpt>
      <trkpt lat="45.71597" lon="3.00494">
        <ele>894.3</ele>
        <time>2013-09-01T12:39:40Z</time>
      </trkpt>
      <trkpt lat="45.71632" lon="3.00486">
        <ele>897.3</ele>
        <time>2013-09-01T12:39:54Z</time>
      </trkpt>
      <trkpt lat="45.71669" lon="3.00525">
        <ele>903.3</ele>
        <time>2013-09-01T12:40:12Z</time>
      </trkpt>
      <trkpt lat="45.71769" lon="3.00592">
        <ele>905.9</ele>
        <time>2013-09-01T12:40:55Z</time>
      </trkpt>
      <trkpt lat="45.71845" lon="3.00538">
        <ele>903</ele>
        <time>2013-09-01T12:41:27Z</time>
      </trkpt>
      <trkpt lat="45.71817" lon="3.00687">
        <ele>899.8</ele>
        <time>2013-09-01T12:42:09Z</time>
      </trkpt>
      <trkpt lat="45.71829" lon="3.00865">
        <ele>898.8</ele>
        <time>2013-09-01T12:42:57Z</time>
      </trkpt>
      <trkpt lat="45.71891" lon="3.01032">
        <ele>894.7</ele>
        <time>2013-09-01T12:43:48Z</time>
      </trkpt>
      <trkpt lat="45.71941" lon="3.01225">
        <ele>890.8</ele>
        <time>2013-09-01T12:44:44Z</time>
      </trkpt>
      <trkpt lat="45.71926" lon="3.01338">
        <ele>887.8</ele>
        <time>2013-09-01T12:45:15Z</time>
      </trkpt>
      <trkpt lat="45.71932" lon="3.01453">
        <ele>891.8</ele>
        <time>2013-09-01T12:45:46Z</time>
      </trkpt>
      <trkpt lat="45.71921" lon="3.01606">
        <ele>888.3</ele>
        <time>2013-09-01T12:46:28Z</time>
      </trkpt>
      <trkpt lat="45.71943" lon="3.01743">
        <ele>883.7</ele>
        <time>2013-09-01T12:47:06Z</time>
      </trkpt>
      <trkpt lat="45.72013" lon="3.0175">
        <ele>883.5</ele>
        <time>2013-09-01T12:47:33Z</time>
      </trkpt>
      <trkpt lat="45.72032" lon="3.01763">
        <ele>873.3</ele>
        <time>2013-09-01T12:47:42Z</time>
      </trkpt>
      <trkpt lat="45.72043" lon="3.01785">
        <ele>872.4</ele>
        <time>2013-09-01T12:47:49Z</time>
      </trkpt>
      <trkpt lat="45.72055" lon="3.01828">
        <ele>870.3</ele>
        <time>2013-09-01T12:48:01Z</time>
      </trkpt>
      <trkpt lat="45.72069" lon="3.01804">
        <ele>870.5</ele>
        <time>2013-09-01T12:48:10Z</time>
      </trkpt>
      <trkpt lat="45.72089" lon="3.01807">
        <ele>869.9</ele>
        <time>2013-09-01T12:48:17Z</time>
      </trkpt>
      <trkpt lat="45.72104" lon="3.01823">
        <ele>869.7</ele>
        <time>2013-09-01T12:48:25Z</time>
      </trkpt>
      <trkpt lat="45.72135" lon="3.01822">
        <ele>871.4</ele>
        <time>2013-09-01T12:48:37Z</time>
      </trkpt>
      <trkpt lat="45.7215" lon="3.01768">
        <ele>872.8</ele>
        <time>2013-09-01T12:48:53Z</time>
      </trkpt>
      <trkpt lat="45.72174" lon="3.01729">
        <ele>875.1</ele>
        <time>2013-09-01T12:49:07Z</time>
      </trkpt>
      <trkpt lat="45.72219" lon="3.01617">
        <ele>882.2</ele>
        <time>2013-09-01T12:49:42Z</time>
      </trkpt>
      <trkpt lat="45.72259" lon="3.01513">
        <ele>885.5</ele>
        <time>2013-09-01T12:50:14Z</time>
      </trkpt>
      <trkpt lat="45.72285" lon="3.01482">
        <ele>885.2</ele>
        <time>2013-09-01T12:50:27Z</time>
      </trkpt>
      <trkpt lat="45.72313" lon="3.01463">
        <ele>885.1</ele>
        <time>2013-09-01T12:50:39Z</time>
      </trkpt>
      <trkpt lat="45.72325" lon="3.01443">
        <ele>885.4</ele>
        <time>2013-09-01T12:50:46Z</time>
      </trkpt>
      <trkpt lat="45.72349" lon="3.01395">
        <ele>887.8</ele>
        <time>2013-09-01T12:51:02Z</time>
      </trkpt>
      <trkpt lat="45.72372" lon="3.01371">
        <ele>889.7</ele>
        <time>2013-09-01T12:51:13Z</time>
      </trkpt>
      <trkpt lat="45.72425" lon="3.01279">
        <ele>891.6</ele>
        <time>2013-09-01T12:51:45Z</time>
      </trkpt>
      <trkpt lat="45.72448" lon="3.01215">
        <ele>893.8</ele>
        <time>2013-09-01T12:52:04Z</time>
      </trkpt>
      <trkpt lat="45.72488" lon="3.01143">
        <ele>898.3</ele>
        <time>2013-09-01T12:52:29Z</time>
      </trkpt>
      <trkpt lat="45.72511" lon="3.01075">
        <ele>904.7</ele>
        <time>2013-09-01T12:52:50Z</time>
      </trkpt>
      <trkpt lat="45.72545" lon="3.00959">
        <ele>911.3</ele>
        <time>2013-09-01T12:53:24Z</time>
      </trkpt>
      <trkpt lat="45.72537" lon="3.00953">
        <ele>911.4</ele>
        <time>2013-09-01T12:53:28Z</time>
      </trkpt>
      <trkpt lat="45.72553" lon="3.00862">
        <ele>914.1</ele>
        <time>2013-09-01T12:53:53Z</time>
      </trkpt>
      <trkpt lat="45.72589" lon="3.00746">
        <ele>918.2</ele>
        <time>2013-09-01T12:54:27Z</time>
      </trkpt>
      <trkpt lat="45.72619" lon="3.0061">
        <ele>925.4</ele>
        <time>2013-09-01T12:55:06Z</time>
      </trkpt>
      <trkpt lat="45.72635" lon="3.00577">
        <ele>928</ele>
        <time>2013-09-01T12:55:17Z</time>
      </trkpt>
      <trkpt lat="45.72649" lon="3.0056">
        <ele>929.9</ele>
        <time>2013-09-01T12:55:24Z</time>
      </trkpt>
      <trkpt lat="45.72714" lon="3.00514">
        <ele>936.6</ele>
        <time>2013-09-01T12:55:52Z</time>
      </trkpt>
      <trkpt lat="45.72764" lon="3.00516">
        <ele>937.2</ele>
        <time>2013-09-01T12:56:11Z</time>
      </trkpt>
      <trkpt lat="45.72809" lon="3.00515">
        <ele>937.5</ele>
        <time>2013-09-01T12:56:29Z</time>
      </trkpt>
      <trkpt lat="45.72845" lon="3.00514">
        <ele>937.7</ele>
        <time>2013-09-01T12:56:43Z</time>
      </trkpt>
      <trkpt lat="45.72877" lon="3.00495">
        <ele>939.1</ele>
        <time>2013-09-01T12:56:56Z</time>
      </trkpt>
      <trkpt lat="45.72917" lon="3.0047">
        <ele>941</ele>
        <time>2013-09-01T12:57:13Z</time>
      </trkpt>
      <trkpt lat="45.73028" lon="3.00224">
        <ele>956.8</ele>
        <time>2013-09-01T12:58:32Z</time>
      </trkpt>
      <trkpt lat="45.73049" lon="3.00131">
        <ele>964.1</ele>
        <time>2013-09-01T12:58:59Z</time>
      </trkpt>
      <trkpt lat="45.7318" lon="3.00149">
        <ele>957.3</ele>
        <time>2013-09-01T12:59:49Z</time>
      </trkpt>
      <trkpt lat="45.73289" lon="3.00151">
        <ele>957</ele>
        <time>2013-09-01T13:00:32Z</time>
      </trkpt>
      <trkpt lat="45.73352" lon="3.00198">
        <ele>959.9</ele>
        <time>2013-09-01T13:00:59Z</time>
      </trkpt>
      <trkpt lat="45.73406" lon="3.00177">
        <ele>966.6</ele>
        <time>2013-09-01T13:01:21Z</time>
      </trkpt>
      <trkpt lat="45.73474" lon="3.00115">
        <ele>977.5</ele>
        <time>2013-09-01T13:01:52Z</time>
      </trkpt>
      <trkpt lat="45.73494" lon="3.00107">
        <ele>979.3</ele>
        <time>2013-09-01T13:02:00Z</time>
      </trkpt>
      <trkpt lat="45.73553" lon="3.00149">
        <ele>979.7</ele>
        <time>2013-09-01T13:02:26Z</time>
      </trkpt>
      <trkpt lat="45.73656" lon="3.00315">
        <ele>976</ele>
        <time>2013-09-01T13:03:26Z</time>
      </trkpt>
      <trkpt lat="45.73728" lon="3.00328">
        <ele>979.6</ele>
        <time>2013-09-01T13:03:54Z</time>
      </trkpt>
      <trkpt lat="45.73749" lon="3.00263">
        <ele>986.1</ele>
        <time>2013-09-01T13:04:13Z</time>
      </trkpt>
      <trkpt lat="45.73754" lon="3.00188">
        <ele>995.4</ele>
        <time>2013-09-01T13:04:34Z</time>
      </trkpt>
      <trkpt lat="45.73758" lon="3.00162">
        <ele>998.8</ele>
        <time>2013-09-01T13:04:41Z</time>
      </trkpt>
      <trkpt lat="45.7381" lon="3.00154">
        <ele>1001.2</ele>
        <time>2013-09-01T13:05:02Z</time>
      </trkpt>
      <trkpt lat="45.73913" lon="3.00087">
        <ele>1004.8</ele>
        <time>2013-09-01T13:05:45Z</time>
      </trkpt>
      <trkpt lat="45.74017" lon="3.00053">
        <ele>1003.5</ele>
        <time>2013-09-01T13:06:26Z</time>
      </trkpt>
      <trkpt lat="45.74171" lon="3.00061">
        <ele>994.6</ele>
        <time>2013-09-01T13:07:26Z</time>
      </trkpt>
      <trkpt lat="45.74216" lon="3.00094">
        <ele>990.8</ele>
        <time>2013-09-01T13:07:46Z</time>
      </trkpt>
      <trkpt lat="45.74401" lon="3.0012">
        <ele>981.6</ele>
        <time>2013-09-01T13:08:58Z</time>
      </trkpt>
      <trkpt lat="45.74477" lon="3.0004">
        <ele>982.2</ele>
        <time>2013-09-01T13:09:34Z</time>
      </trkpt>
      <trkpt lat="45.74518" lon="2.99998">
        <ele>981.8</ele>
        <time>2013-09-01T13:09:54Z</time>
      </trkpt>
      <trkpt lat="45.74574" lon="3.00076">
        <ele>975</ele>
        <time>2013-09-01T13:10:24Z</time>
      </trkpt>
      <trkpt lat="45.7466" lon="3.00102">
        <ele>971.3</ele>
        <time>2013-09-01T13:10:58Z</time>
      </trkpt>
      <trkpt lat="45.7468" lon="3.00037">
        <ele>973.3</ele>
        <time>2013-09-01T13:11:17Z</time>
      </trkpt>
      <trkpt lat="45.74843" lon="3.00029">
        <ele>968</ele>
        <time>2013-09-01T13:12:20Z</time>
      </trkpt>
      <trkpt lat="45.75012" lon="2.9998">
        <ele>964.9</ele>
        <time>2013-09-01T13:13:27Z</time>
      </trkpt>
      <trkpt lat="45.75206" lon="2.99855">
        <ele>950.9</ele>
        <time>2013-09-01T13:14:49Z</time>
      </trkpt>
      <trkpt lat="45.75274" lon="2.99824">
        <ele>943.3</ele>
        <time>2013-09-01T13:15:17Z</time>
      </trkpt>
      <trkpt lat="45.7528" lon="2.99832">
        <ele>941.5</ele>
        <time>2013-09-01T13:15:20Z</time>
      </trkpt>
      <trkpt lat="45.75277" lon="2.99862">
        <ele>938.8</ele>
        <time>2013-09-01T13:15:29Z</time>
      </trkpt>
      <trkpt lat="45.75289" lon="2.99868">
        <ele>936.4</ele>
        <time>2013-09-01T13:15:34Z</time>
      </trkpt>
      <trkpt lat="45.75345" lon="2.99846">
        <ele>931.1</ele>
        <time>2013-09-01T13:15:56Z</time>
      </trkpt>
      <trkpt lat="45.75404" lon="2.99844">
        <ele>925.8</ele>
        <time>2013-09-01T13:16:19Z</time>
      </trkpt>
      <trkpt lat="45.75416" lon="2.99657">
        <ele>933.5</ele>
        <time>2013-09-01T13:17:10Z</time>
      </trkpt>
      <trkpt lat="45.75409" lon="2.99527">
        <ele>939.5</ele>
        <time>2013-09-01T13:17:45Z</time>
      </trkpt>
      <trkpt lat="45.75416" lon="2.99368">
        <ele>946</ele>
        <time>2013-09-01T13:18:28Z</time>
      </trkpt>
      <trkpt lat="45.7538" lon="2.99218">
        <ele>947.2</ele>
        <time>2013-09-01T13:19:11Z</time>
      </trkpt>
      <trkpt lat="45.75375" lon="2.99015">
        <ele>942.2</ele>
        <time>2013-09-01T13:20:05Z</time>
      </trkpt>
      <trkpt lat="45.75386" lon="2.98747">
        <ele>939.1</ele>
        <time>2013-09-01T13:21:18Z</time>
      </trkpt>
      <trkpt lat="45.75389" lon="2.98526">
        <ele>932.6</ele>
        <time>2013-09-01T13:22:17Z</time>
      </trkpt>
      <trkpt lat="45.75382" lon="2.98394">
        <ele>925.8</ele>
        <time>2013-09-01T13:22:53Z</time>
      </trkpt>
      <trkpt lat="45.75409" lon="2.98207">
        <ele>917.5</ele>
        <time>2013-09-01T13:23:45Z</time>
      </trkpt>
      <trkpt lat="45.75495" lon="2.97955">
        <ele>927.9</ele>
        <time>2013-09-01T13:25:01Z</time>
      </trkpt>
      <trkpt lat="45.75544" lon="2.97749">
        <ele>940.4</ele>
        <time>2013-09-01T13:25:59Z</time>
      </trkpt>
      <trkpt lat="45.75564" lon="2.97718">
        <ele>941.9</ele>
        <time>2013-09-01T13:26:11Z</time>
      </trkpt>
      <trkpt lat="45.75598" lon="2.97593">
        <ele>947.1</ele>
        <time>2013-09-01T13:26:47Z</time>
      </trkpt>
      <trkpt lat="45.75619" lon="2.97534">
        <ele>948.6</ele>
        <time>2013-09-01T13:27:05Z</time>
      </trkpt>
      <trkpt lat="45.75626" lon="2.97492">
        <ele>949.8</ele>
        <time>2013-09-01T13:27:17Z</time>
      </trkpt>
      <trkpt lat="45.75657" lon="2.9737">
        <ele>952.1</ele>
        <time>2013-09-01T13:27:52Z</time>
      </trkpt>
      <trkpt lat="45.75704" lon="2.97193">
        <ele>955.4</ele>
        <time>2013-09-01T13:28:43Z</time>
      </trkpt>
      <trkpt lat="45.7572" lon="2.97055">
        <ele>955.7</ele>
        <time>2013-09-01T13:29:20Z</time>
      </trkpt>
      <trkpt lat="45.7577" lon="2.96884">
        <ele>956.6</ele>
        <time>2013-09-01T13:30:10Z</time>
      </trkpt>
      <trkpt lat="45.75799" lon="2.96754">
        <ele>960</ele>
        <time>2013-09-01T13:30:47Z</time>
      </trkpt>
      <trkpt lat="45.75829" lon="2.96619">
        <ele>963.4</ele>
        <time>2013-09-01T13:31:26Z</time>
      </trkpt>
      <trkpt lat="45.75828" lon="2.96531">
        <ele>963.1</ele>
        <time>2013-09-01T13:31:49Z</time>
      </trkpt>
      <trkpt lat="45.75583" lon="2.96612">
        <ele>960.7</ele>
        <time>2013-09-01T13:33:26Z</time>
      </trkpt>
      <trkpt lat="45.7533" lon="2.96725">
        <ele>956.2</ele>
        <time>2013-09-01T13:35:09Z</time>
      </trkpt>
      <trkpt lat="45.75295" lon="2.96678">
        <ele>955.5</ele>
        <time>2013-09-01T13:35:27Z</time>
      </trkpt>
      <trkpt lat="45.75295" lon="2.96565">
        <ele>957.3</ele>
        <time>2013-09-01T13:35:58Z</time>
      </trkpt>
      <trkpt lat="45.75284" lon="2.96499">
        <ele>957.3</ele>
        <time>2013-09-01T13:36:16Z</time>
      </trkpt>
      <trkpt lat="45.75284" lon="2.96261">
        <ele>962.1</ele>
        <time>2013-09-01T13:37:20Z</time>
      </trkpt>
      <trkpt lat="45.75195" lon="2.96245">
        <ele>962.7</ele>
        <time>2013-09-01T13:37:55Z</time>
      </trkpt>
      <trkpt lat="45.75085" lon="2.96097">
        <ele>970.6</ele>
        <time>2013-09-01T13:38:54Z</time>
      </trkpt>
      <trkpt lat="45.74988" lon="2.96101">
        <ele>974.9</ele>
        <time>2013-09-01T13:39:31Z</time>
      </trkpt>
      <trkpt lat="45.75066" lon="2.96015">
        <ele>977.1</ele>
        <time>2013-09-01T13:40:09Z</time>
      </trkpt>
      <trkpt lat="45.75139" lon="2.95906">
        <ele>982.3</ele>
        <time>2013-09-01T13:40:50Z</time>
      </trkpt>
      <trkpt lat="45.75185" lon="2.95805">
        <ele>987.4</ele>
        <time>2013-09-01T13:41:23Z</time>
      </trkpt>
      <trkpt lat="45.75346" lon="2.95739">
        <ele>984.8</ele>
        <time>2013-09-01T13:42:28Z</time>
      </trkpt>
      <trkpt lat="45.75376" lon="2.95555">
        <ele>990.4</ele>
        <time>2013-09-01T13:43:18Z</time>
      </trkpt>
      <trkpt lat="45.75406" lon="2.95516">
        <ele>992.8</ele>
        <time>2013-09-01T13:43:34Z</time>
      </trkpt>
      <trkpt lat="45.75546" lon="2.95676">
        <ele>993.2</ele>
        <time>2013-09-01T13:44:43Z</time>
      </trkpt>
      <trkpt lat="45.75592" lon="2.95801">
        <ele>1000.2</ele>
        <time>2013-09-01T13:45:21Z</time>
      </trkpt>
      <trkpt lat="45.7564" lon="2.95863">
        <ele>1003.1</ele>
        <time>2013-09-01T13:45:46Z</time>
      </trkpt>
      <trkpt lat="45.75667" lon="2.95762">
        <ele>1014.7</ele>
        <time>2013-09-01T13:46:16Z</time>
      </trkpt>
      <trkpt lat="45.75672" lon="2.95696">
        <ele>1023.3</ele>
        <time>2013-09-01T13:46:34Z</time>
      </trkpt>
      <trkpt lat="45.75578" lon="2.9559">
        <ele>1022.9</ele>
        <time>2013-09-01T13:47:20Z</time>
      </trkpt>
      <trkpt lat="45.755" lon="2.95364">
        <ele>1046.2</ele>
        <time>2013-09-01T13:48:29Z</time>
      </trkpt>
      <trkpt lat="45.75497" lon="2.9522">
        <ele>1067.4</ele>
        <time>2013-09-01T13:49:09Z</time>
      </trkpt>
      <trkpt lat="45.75511" lon="2.95072">
        <ele>1078.3</ele>
        <time>2013-09-01T13:49:49Z</time>
      </trkpt>
      <trkpt lat="45.75602" lon="2.95006">
        <ele>1084.7</ele>
        <time>2013-09-01T13:50:29Z</time>
      </trkpt>
      <trkpt lat="45.75681" lon="2.94951">
        <ele>1081.3</ele>
        <time>2013-09-01T13:51:02Z</time>
      </trkpt>
      <trkpt lat="45.75698" lon="2.94914">
        <ele>1076.1</ele>
        <time>2013-09-01T13:51:15Z</time>
      </trkpt>
      <trkpt lat="45.7574" lon="2.94864">
        <ele>1060.7</ele>
        <time>2013-09-01T13:51:36Z</time>
      </trkpt>
      <trkpt lat="45.75785" lon="2.94877">
        <ele>1047.3</ele>
        <time>2013-09-01T13:51:55Z</time>
      </trkpt>
      <trkpt lat="45.75815" lon="2.94916">
        <ele>1049.1</ele>
        <time>2013-09-01T13:52:10Z</time>
      </trkpt>
      <trkpt lat="45.75875" lon="2.94916">
        <ele>1041.3</ele>
        <time>2013-09-01T13:52:34Z</time>
      </trkpt>
      <trkpt lat="45.75905" lon="2.94875">
        <ele>1035.4</ele>
        <time>2013-09-01T13:52:50Z</time>
      </trkpt>
      <trkpt lat="45.75991" lon="2.9496">
        <ele>1035.6</ele>
        <time>2013-09-01T13:53:30Z</time>
      </trkpt>
      <trkpt lat="45.76052" lon="2.94991">
        <ele>1038.4</ele>
        <time>2013-09-01T13:53:56Z</time>
      </trkpt>
      <trkpt lat="45.76139" lon="2.95088">
        <ele>1041.2</ele>
        <time>2013-09-01T13:54:38Z</time>
      </trkpt>
      <trkpt lat="45.76246" lon="2.95166">
        <ele>1041.1</ele>
        <time>2013-09-01T13:55:25Z</time>
      </trkpt>
      <trkpt lat="45.76318" lon="2.95145">
        <ele>1030.8</ele>
        <time>2013-09-01T13:55:53Z</time>
      </trkpt>
      <trkpt lat="45.76352" lon="2.95106">
        <ele>1025.1</ele>
        <time>2013-09-01T13:56:10Z</time>
      </trkpt>
      <trkpt lat="45.76352" lon="2.94893">
        <ele>1019.2</ele>
        <time>2013-09-01T13:57:08Z</time>
      </trkpt>
      <trkpt lat="45.76354" lon="2.94745">
        <ele>1016.2</ele>
        <time>2013-09-01T13:57:48Z</time>
      </trkpt>
      <trkpt lat="45.76347" lon="2.94651">
        <ele>1015.7</ele>
        <time>2013-09-01T13:58:13Z</time>
      </trkpt>
      <trkpt lat="45.76372" lon="2.94651">
        <ele>1010.3</ele>
        <time>2013-09-01T13:58:23Z</time>
      </trkpt>
      <trkpt lat="45.76405" lon="2.94732">
        <ele>1009.4</ele>
        <time>2013-09-01T13:58:48Z</time>
      </trkpt>
      <trkpt lat="45.76432" lon="2.94867">
        <ele>1012</ele>
        <time>2013-09-01T13:59:26Z</time>
      </trkpt>
      <trkpt lat="45.76449" lon="2.94937">
        <ele>1013.9</ele>
        <time>2013-09-01T13:59:46Z</time>
      </trkpt>
      <trkpt lat="45.7658" lon="2.94991">
        <ele>1015.7</ele>
        <time>2013-09-01T14:00:39Z</time>
      </trkpt>
      <trkpt lat="45.76679" lon="2.95004">
        <ele>1019</ele>
        <time>2013-09-01T14:01:17Z</time>
      </trkpt>
      <trkpt lat="45.76841" lon="2.9495">
        <ele>1022.7</ele>
        <time>2013-09-01T14:02:21Z</time>
      </trkpt>
      <trkpt lat="45.77042" lon="2.94854">
        <ele>1013.6</ele>
        <time>2013-09-01T14:03:43Z</time>
      </trkpt>
      <trkpt lat="45.7718" lon="2.94825">
        <ele>1013.1</ele>
        <time>2013-09-01T14:04:37Z</time>
      </trkpt>
      <trkpt lat="45.77292" lon="2.94841">
        <ele>1014</ele>
        <time>2013-09-01T14:05:21Z</time>
      </trkpt>
      <trkpt lat="45.77423" lon="2.94963">
        <ele>1026.5</ele>
        <time>2013-09-01T14:06:21Z</time>
      </trkpt>
      <trkpt lat="45.77503" lon="2.95103">
        <ele>1047.4</ele>
        <time>2013-09-01T14:07:11Z</time>
      </trkpt>
      <trkpt lat="45.77524" lon="2.95208">
        <ele>1064.3</ele>
        <time>2013-09-01T14:07:41Z</time>
      </trkpt>
      <trkpt lat="45.77565" lon="2.95284">
        <ele>1075.6</ele>
        <time>2013-09-01T14:08:07Z</time>
      </trkpt>
      <trkpt lat="45.77596" lon="2.95291">
        <ele>1078.1</ele>
        <time>2013-09-01T14:08:19Z</time>
      </trkpt>
      <trkpt lat="45.77714" lon="2.95232">
        <ele>1071.4</ele>
        <time>2013-09-01T14:09:07Z</time>
      </trkpt>
      <trkpt lat="45.77862" lon="2.95268">
        <ele>1064.1</ele>
        <time>2013-09-01T14:10:06Z</time>
      </trkpt>
      <trkpt lat="45.77938" lon="2.95325">
        <ele>1068</ele>
        <time>2013-09-01T14:10:39Z</time>
      </trkpt>
      <trkpt lat="45.78015" lon="2.95364">
        <ele>1068.9</ele>
        <time>2013-09-01T14:11:10Z</time>
      </trkpt>
      <trkpt lat="45.78044" lon="2.95413">
        <ele>1069.4</ele>
        <time>2013-09-01T14:11:28Z</time>
      </trkpt>
      <trkpt lat="45.78087" lon="2.95541">
        <ele>1071.1</ele>
        <time>2013-09-01T14:12:06Z</time>
      </trkpt>
      <trkpt lat="45.78139" lon="2.95647">
        <ele>1070.1</ele>
        <time>2013-09-01T14:12:41Z</time>
      </trkpt>
      <trkpt lat="45.7815" lon="2.95704">
        <ele>1070.9</ele>
        <time>2013-09-01T14:12:57Z</time>
      </trkpt>
      <trkpt lat="45.78213" lon="2.95816">
        <ele>1071.8</ele>
        <time>2013-09-01T14:13:35Z</time>
      </trkpt>
      <trkpt lat="45.78272" lon="2.96026">
        <ele>1080</ele>
        <time>2013-09-01T14:14:37Z</time>
      </trkpt>
      <trkpt lat="45.78326" lon="2.96124">
        <ele>1086.4</ele>
        <time>2013-09-01T14:15:10Z</time>
      </trkpt>
      <trkpt lat="45.78383" lon="2.96128">
        <ele>1088.5</ele>
        <time>2013-09-01T14:15:32Z</time>
      </trkpt>
      <trkpt lat="45.78461" lon="2.96093">
        <ele>1090.9</ele>
        <time>2013-09-01T14:16:04Z</time>
      </trkpt>
      <trkpt lat="45.78512" lon="2.96167">
        <ele>1103.5</ele>
        <time>2013-09-01T14:16:32Z</time>
      </trkpt>
      <trkpt lat="45.78582" lon="2.96077">
        <ele>1091.7</ele>
        <time>2013-09-01T14:17:09Z</time>
      </trkpt>
      <trkpt lat="45.78617" lon="2.95987">
        <ele>1083.4</ele>
        <time>2013-09-01T14:17:37Z</time>
      </trkpt>
      <trkpt lat="45.78596" lon="2.95855">
        <ele>1090.5</ele>
        <time>2013-09-01T14:18:13Z</time>
      </trkpt>
      <trkpt lat="45.78586" lon="2.95704">
        <ele>1084.5</ele>
        <time>2013-09-01T14:18:54Z</time>
      </trkpt>
      <trkpt lat="45.78594" lon="2.95525">
        <ele>1090.4</ele>
        <time>2013-09-01T14:19:43Z</time>
      </trkpt>
      <trkpt lat="45.78611" lon="2.95419">
        <ele>1097.8</ele>
        <time>2013-09-01T14:20:12Z</time>
      </trkpt>
      <trkpt lat="45.78609" lon="2.95328">
        <ele>1096.1</ele>
        <time>2013-09-01T14:20:37Z</time>
      </trkpt>
      <trkpt lat="45.78627" lon="2.95172">
        <ele>1093.8</ele>
        <time>2013-09-01T14:21:19Z</time>
      </trkpt>
      <trkpt lat="45.78629" lon="2.95081">
        <ele>1083.8</ele>
        <time>2013-09-01T14:21:44Z</time>
      </trkpt>
      <trkpt lat="45.78627" lon="2.95034">
        <ele>1077.3</ele>
        <time>2013-09-01T14:21:57Z</time>
      </trkpt>
      <trkpt lat="45.7865" lon="2.94938">
        <ele>1068.2</ele>
        <time>2013-09-01T14:22:25Z</time>
      </trkpt>
      <trkpt lat="45.78618" lon="2.94769">
        <ele>1049.8</ele>
        <time>2013-09-01T14:23:12Z</time>
      </trkpt>
      <trkpt lat="45.78605" lon="2.94657">
        <ele>1048.1</ele>
        <time>2013-09-01T14:23:43Z</time>
      </trkpt>
      <trkpt lat="45.78618" lon="2.94598">
        <ele>1045.5</ele>
        <time>2013-09-01T14:24:00Z</time>
      </trkpt>
      <trkpt lat="45.7865" lon="2.94509">
        <ele>1041.1</ele>
        <time>2013-09-01T14:24:27Z</time>
      </trkpt>
      <trkpt lat="45.78708" lon="2.94444">
        <ele>1043.6</ele>
        <time>2013-09-01T14:24:55Z</time>
      </trkpt>
      <trkpt lat="45.78783" lon="2.9445">
        <ele>1047.4</ele>
        <time>2013-09-01T14:25:24Z</time>
      </trkpt>
      <trkpt lat="45.78844" lon="2.94429">
        <ele>1049.6</ele>
        <time>2013-09-01T14:25:48Z</time>
      </trkpt>
      <trkpt lat="45.78893" lon="2.94403">
        <ele>1049.6</ele>
        <time>2013-09-01T14:26:08Z</time>
      </trkpt>
      <trkpt lat="45.79027" lon="2.94413">
        <ele>1039.5</ele>
        <time>2013-09-01T14:27:01Z</time>
      </trkpt>
      <trkpt lat="45.79092" lon="2.94429">
        <ele>1036.6</ele>
        <time>2013-09-01T14:27:26Z</time>
      </trkpt>
      <trkpt lat="45.79124" lon="2.94431">
        <ele>1038.8</ele>
        <time>2013-09-01T14:27:39Z</time>
      </trkpt>
      <trkpt lat="45.792" lon="2.94489">
        <ele>1048</ele>
        <time>2013-09-01T14:28:12Z</time>
      </trkpt>
      <trkpt lat="45.79238" lon="2.94546">
        <ele>1052.4</ele>
        <time>2013-09-01T14:28:33Z</time>
      </trkpt>
      <trkpt lat="45.79283" lon="2.94613">
        <ele>1055</ele>
        <time>2013-09-01T14:28:58Z</time>
      </trkpt>
      <trkpt lat="45.79438" lon="2.94832">
        <ele>1042.7</ele>
        <time>2013-09-01T14:30:22Z</time>
      </trkpt>
      <trkpt lat="45.79512" lon="2.94922">
        <ele>1030.4</ele>
        <time>2013-09-01T14:31:00Z</time>
      </trkpt>
      <trkpt lat="45.79543" lon="2.94964">
        <ele>1025.3</ele>
        <time>2013-09-01T14:31:17Z</time>
      </trkpt>
      <trkpt lat="45.79566" lon="2.95032">
        <ele>1015.5</ele>
        <time>2013-09-01T14:31:37Z</time>
      </trkpt>
      <trkpt lat="45.79587" lon="2.95055">
        <ele>1012.4</ele>
        <time>2013-09-01T14:31:48Z</time>
      </trkpt>
      <trkpt lat="45.79627" lon="2.95058">
        <ele>1011.9</ele>
        <time>2013-09-01T14:32:03Z</time>
      </trkpt>
      <trkpt lat="45.79705" lon="2.95026">
        <ele>1016.1</ele>
        <time>2013-09-01T14:32:34Z</time>
      </trkpt>
      <trkpt lat="45.79784" lon="2.95021">
        <ele>1015.4</ele>
        <time>2013-09-01T14:33:05Z</time>
      </trkpt>
      <trkpt lat="45.79816" lon="2.95019">
        <ele>1014.4</ele>
        <time>2013-09-01T14:33:17Z</time>
      </trkpt>
      <trkpt lat="45.79857" lon="2.94993">
        <ele>1013.4</ele>
        <time>2013-09-01T14:33:35Z</time>
      </trkpt>
      <trkpt lat="45.79897" lon="2.94982">
        <ele>1009.7</ele>
        <time>2013-09-01T14:33:50Z</time>
      </trkpt>
      <trkpt lat="45.79917" lon="2.95013">
        <ele>1005.7</ele>
        <time>2013-09-01T14:34:02Z</time>
      </trkpt>
      <trkpt lat="45.79989" lon="2.95094">
        <ele>998.8</ele>
        <time>2013-09-01T14:34:37Z</time>
      </trkpt>
      <trkpt lat="45.80041" lon="2.95089">
        <ele>995.1</ele>
        <time>2013-09-01T14:34:57Z</time>
      </trkpt>
      <trkpt lat="45.80084" lon="2.95117">
        <ele>991.9</ele>
        <time>2013-09-01T14:35:16Z</time>
      </trkpt>
      <trkpt lat="45.80111" lon="2.9512">
        <ele>989.1</ele>
        <time>2013-09-01T14:35:26Z</time>
      </trkpt>
      <trkpt lat="45.80188" lon="2.95143">
        <ele>980.6</ele>
        <time>2013-09-01T14:35:57Z</time>
      </trkpt>
      <trkpt lat="45.80246" lon="2.95141">
        <ele>975.4</ele>
        <time>2013-09-01T14:36:19Z</time>
      </trkpt>
      <trkpt lat="45.8029" lon="2.95128">
        <ele>973.8</ele>
        <time>2013-09-01T14:36:37Z</time>
      </trkpt>
      <trkpt lat="45.80316" lon="2.95125">
        <ele>972.6</ele>
        <time>2013-09-01T14:36:47Z</time>
      </trkpt>
      <trkpt lat="45.80363" lon="2.95073">
        <ele>964.3</ele>
        <time>2013-09-01T14:37:10Z</time>
      </trkpt>
      <trkpt lat="45.80436" lon="2.95037">
        <ele>959.7</ele>
        <time>2013-09-01T14:37:40Z</time>
      </trkpt>
      <trkpt lat="45.80499" lon="2.95011">
        <ele>955</ele>
        <time>2013-09-01T14:38:05Z</time>
      </trkpt>
      <trkpt lat="45.80531" lon="2.94995">
        <ele>954.6</ele>
        <time>2013-09-01T14:38:19Z</time>
      </trkpt>
      <trkpt lat="45.80587" lon="2.95019">
        <ele>956.4</ele>
        <time>2013-09-01T14:38:41Z</time>
      </trkpt>
      <trkpt lat="45.8067" lon="2.95029">
        <ele>961.4</ele>
        <time>2013-09-01T14:39:13Z</time>
      </trkpt>
      <trkpt lat="45.80876" lon="2.95094">
        <ele>964.4</ele>
        <time>2013-09-01T14:40:35Z</time>
      </trkpt>
      <trkpt lat="45.80957" lon="2.95107">
        <ele>963.5</ele>
        <time>2013-09-01T14:41:06Z</time>
      </trkpt>
      <trkpt lat="45.8107" lon="2.95084">
        <ele>966.2</ele>
        <time>2013-09-01T14:41:51Z</time>
      </trkpt>
      <trkpt lat="45.81169" lon="2.95076">
        <ele>957.5</ele>
        <time>2013-09-01T14:42:29Z</time>
      </trkpt>
      <trkpt lat="45.81225" lon="2.9511">
        <ele>955.8</ele>
        <time>2013-09-01T14:42:52Z</time>
      </trkpt>
      <trkpt lat="45.81264" lon="2.95148">
        <ele>954.9</ele>
        <time>2013-09-01T14:43:11Z</time>
      </trkpt>
      <trkpt lat="45.81279" lon="2.95167">
        <ele>956.1</ele>
        <time>2013-09-01T14:43:18Z</time>
      </trkpt>
      <trkpt lat="45.8129" lon="2.95159">
        <ele>956.7</ele>
        <time>2013-09-01T14:43:23Z</time>
      </trkpt>
      <trkpt lat="45.813" lon="2.95213">
        <ele>959.4</ele>
        <time>2013-09-01T14:43:38Z</time>
      </trkpt>
      <trkpt lat="45.81313" lon="2.9525">
        <ele>960.5</ele>
        <time>2013-09-01T14:43:49Z</time>
      </trkpt>
      <trkpt lat="45.81327" lon="2.95278">
        <ele>959.6</ele>
        <time>2013-09-01T14:43:59Z</time>
      </trkpt>
      <trkpt lat="45.81333" lon="2.95328">
        <ele>958.2</ele>
        <time>2013-09-01T14:44:12Z</time>
      </trkpt>
      <trkpt lat="45.81351" lon="2.95343">
        <ele>956.5</ele>
        <time>2013-09-01T14:44:20Z</time>
      </trkpt>
      <trkpt lat="45.81374" lon="2.95346">
        <ele>955</ele>
        <time>2013-09-01T14:44:29Z</time>
      </trkpt>
      <trkpt lat="45.81388" lon="2.95343">
        <ele>954.3</ele>
        <time>2013-09-01T14:44:35Z</time>
      </trkpt>
      <trkpt lat="45.81408" lon="2.95315">
        <ele>955.2</ele>
        <time>2013-09-01T14:44:46Z</time>
      </trkpt>
      <trkpt lat="45.81432" lon="2.95312">
        <ele>955</ele>
        <time>2013-09-01T14:44:55Z</time>
      </trkpt>
      <trkpt lat="45.81457" lon="2.95336">
        <ele>953</ele>
        <time>2013-09-01T14:45:07Z</time>
      </trkpt>
      <trkpt lat="45.81462" lon="2.95351">
        <ele>952.5</ele>
        <time>2013-09-01T14:45:11Z</time>
      </trkpt>
      <trkpt lat="45.81451" lon="2.95416">
        <ele>950.5</ele>
        <time>2013-09-01T14:45:29Z</time>
      </trkpt>
      <trkpt lat="45.81415" lon="2.95538">
        <ele>950.5</ele>
        <time>2013-09-01T14:46:05Z</time>
      </trkpt>
      <trkpt lat="45.81415" lon="2.95697">
        <ele>950.4</ele>
        <time>2013-09-01T14:46:48Z</time>
      </trkpt>
      <trkpt lat="45.81435" lon="2.95816">
        <ele>953.6</ele>
        <time>2013-09-01T14:47:21Z</time>
      </trkpt>
      <trkpt lat="45.81775" lon="2.96034">
        <ele>962.8</ele>
        <time>2013-09-01T14:49:45Z</time>
      </trkpt>
      <trkpt lat="45.81933" lon="2.9617">
        <ele>964.6</ele>
        <time>2013-09-01T14:50:56Z</time>
      </trkpt>
      <trkpt lat="45.82043" lon="2.96242">
        <ele>971.7</ele>
        <time>2013-09-01T14:51:43Z</time>
      </trkpt>
      <trkpt lat="45.82159" lon="2.96276">
        <ele>974.8</ele>
        <time>2013-09-01T14:52:28Z</time>
      </trkpt>
      <trkpt lat="45.82259" lon="2.96292">
        <ele>978.7</ele>
        <time>2013-09-01T14:53:07Z</time>
      </trkpt>
      <trkpt lat="45.82293" lon="2.96322">
        <ele>980.5</ele>
        <time>2013-09-01T14:53:23Z</time>
      </trkpt>
      <trkpt lat="45.82253" lon="2.96332">
        <ele>963</ele>
        <time>2013-09-01T14:53:40Z</time>
      </trkpt>
      <trkpt lat="45.82169" lon="2.96367">
        <ele>960.5</ele>
        <time>2013-09-01T14:54:14Z</time>
      </trkpt>
      <trkpt lat="45.82093" lon="2.96398">
        <ele>959.3</ele>
        <time>2013-09-01T14:54:44Z</time>
      </trkpt>
      <trkpt lat="45.82066" lon="2.9641">
        <ele>958.5</ele>
        <time>2013-09-01T14:54:55Z</time>
      </trkpt>
      <trkpt lat="45.82069" lon="2.96502">
        <ele>961.2</ele>
        <time>2013-09-01T14:55:20Z</time>
      </trkpt>
      <trkpt lat="45.82049" lon="2.96677">
        <ele>969</ele>
        <time>2013-09-01T14:56:08Z</time>
      </trkpt>
      <trkpt lat="45.82059" lon="2.96895">
        <ele>972.9</ele>
        <time>2013-09-01T14:57:07Z</time>
      </trkpt>
      <trkpt lat="45.82073" lon="2.97217">
        <ele>958.7</ele>
        <time>2013-09-01T14:58:34Z</time>
      </trkpt>
      <trkpt lat="45.82117" lon="2.9739">
        <ele>952.1</ele>
        <time>2013-09-01T14:59:23Z</time>
      </trkpt>
      <trkpt lat="45.82162" lon="2.97515">
        <ele>945.4</ele>
        <time>2013-09-01T15:00:01Z</time>
      </trkpt>
      <trkpt lat="45.82247" lon="2.97601">
        <ele>935.9</ele>
        <time>2013-09-01T15:00:42Z</time>
      </trkpt>
      <trkpt lat="45.82272" lon="2.97659">
        <ele>930.2</ele>
        <time>2013-09-01T15:01:00Z</time>
      </trkpt>
      <trkpt lat="45.8228" lon="2.97696">
        <ele>928.3</ele>
        <time>2013-09-01T15:01:11Z</time>
      </trkpt>
      <trkpt lat="45.82305" lon="2.97737">
        <ele>925</ele>
        <time>2013-09-01T15:01:25Z</time>
      </trkpt>
      <trkpt lat="45.82357" lon="2.97776">
        <ele>920.1</ele>
        <time>2013-09-01T15:01:48Z</time>
      </trkpt>
      <trkpt lat="45.82419" lon="2.97827">
        <ele>912.4</ele>
        <time>2013-09-01T15:02:16Z</time>
      </trkpt>
      <trkpt lat="45.82532" lon="2.97895">
        <ele>899.2</ele>
        <time>2013-09-01T15:03:04Z</time>
      </trkpt>
      <trkpt lat="45.82584" lon="2.97991">
        <ele>892</ele>
        <time>2013-09-01T15:03:36Z</time>
      </trkpt>
      <trkpt lat="45.82714" lon="2.9834">
        <ele>887.9</ele>
        <time>2013-09-01T15:05:23Z</time>
      </trkpt>
      <trkpt lat="45.82613" lon="2.98371">
        <ele>889.6</ele>
        <time>2013-09-01T15:06:03Z</time>
      </trkpt>
      <trkpt lat="45.82367" lon="2.98471">
        <ele>899.5</ele>
        <time>2013-09-01T15:07:42Z</time>
      </trkpt>
      <trkpt lat="45.82245" lon="2.98591">
        <ele>893.6</ele>
        <time>2013-09-01T15:08:39Z</time>
      </trkpt>
      <trkpt lat="45.82174" lon="2.98706">
        <ele>892.4</ele>
        <time>2013-09-01T15:09:20Z</time>
      </trkpt>
      <trkpt lat="45.82096" lon="2.98749">
        <ele>903.2</ele>
        <time>2013-09-01T15:09:53Z</time>
      </trkpt>
      <trkpt lat="45.8206" lon="2.98798">
        <ele>905.6</ele>
        <time>2013-09-01T15:10:12Z</time>
      </trkpt>
      <trkpt lat="45.8205" lon="2.98839">
        <ele>906.4</ele>
        <time>2013-09-01T15:10:24Z</time>
      </trkpt>
      <trkpt lat="45.82014" lon="2.98915">
        <ele>907.4</ele>
        <time>2013-09-01T15:10:49Z</time>
      </trkpt>
      <trkpt lat="45.82007" lon="2.98999">
        <ele>906.3</ele>
        <time>2013-09-01T15:11:11Z</time>
      </trkpt>
      <trkpt lat="45.81801" lon="2.99282">
        <ele>904.8</ele>
        <time>2013-09-01T15:13:02Z</time>
      </trkpt>
      <trkpt lat="45.81739" lon="2.99422">
        <ele>901.7</ele>
        <time>2013-09-01T15:13:47Z</time>
      </trkpt>
      <trkpt lat="45.81713" lon="2.99481">
        <ele>904.9</ele>
        <time>2013-09-01T15:14:05Z</time>
      </trkpt>
      <trkpt lat="45.81701" lon="2.99547">
        <ele>907</ele>
        <time>2013-09-01T15:14:24Z</time>
      </trkpt>
      <trkpt lat="45.81688" lon="2.99645">
        <ele>911.1</ele>
        <time>2013-09-01T15:14:51Z</time>
      </trkpt>
      <trkpt lat="45.81693" lon="2.99739">
        <ele>913.5</ele>
        <time>2013-09-01T15:15:16Z</time>
      </trkpt>
      <trkpt lat="45.81699" lon="2.99793">
        <ele>915.3</ele>
        <time>2013-09-01T15:15:31Z</time>
      </trkpt>
      <trkpt lat="45.81691" lon="2.99803">
        <ele>916.1</ele>
        <time>2013-09-01T15:15:35Z</time>
      </trkpt>
      <trkpt lat="45.81668" lon="2.99833">
        <ele>917.9</ele>
        <time>2013-09-01T15:15:47Z</time>
      </trkpt>
      <trkpt lat="45.81661" lon="2.9985">
        <ele>919.2</ele>
        <time>2013-09-01T15:15:52Z</time>
      </trkpt>
      <trkpt lat="45.81608" lon="2.99927">
        <ele>924.1</ele>
        <time>2013-09-01T15:16:22Z</time>
      </trkpt>
      <trkpt lat="45.81565" lon="3.00001">
        <ele>923.9</ele>
        <time>2013-09-01T15:16:47Z</time>
      </trkpt>
      <trkpt lat="45.81528" lon="3.00042">
        <ele>924.2</ele>
        <time>2013-09-01T15:17:06Z</time>
      </trkpt>
      <trkpt lat="45.81504" lon="3.00085">
        <ele>922.9</ele>
        <time>2013-09-01T15:17:21Z</time>
      </trkpt>
      <trkpt lat="45.81492" lon="3.00123">
        <ele>922.9</ele>
        <time>2013-09-01T15:17:32Z</time>
      </trkpt>
      <trkpt lat="45.81464" lon="3.00229">
        <ele>920.9</ele>
        <time>2013-09-01T15:18:02Z</time>
      </trkpt>
      <trkpt lat="45.81441" lon="3.00276">
        <ele>920.4</ele>
        <time>2013-09-01T15:18:18Z</time>
      </trkpt>
      <trkpt lat="45.81432" lon="3.00318">
        <ele>919</ele>
        <time>2013-09-01T15:18:29Z</time>
      </trkpt>
      <trkpt lat="45.81429" lon="3.00341">
        <ele>917.8</ele>
        <time>2013-09-01T15:18:36Z</time>
      </trkpt>
      <trkpt lat="45.81429" lon="3.0038">
        <ele>914.3</ele>
        <time>2013-09-01T15:18:46Z</time>
      </trkpt>
      <trkpt lat="45.81408" lon="3.00451">
        <ele>908.7</ele>
        <time>2013-09-01T15:19:08Z</time>
      </trkpt>
      <trkpt lat="45.81376" lon="3.00506">
        <ele>907.8</ele>
        <time>2013-09-01T15:19:27Z</time>
      </trkpt>
      <trkpt lat="45.81358" lon="3.00537">
        <ele>907.1</ele>
        <time>2013-09-01T15:19:38Z</time>
      </trkpt>
      <trkpt lat="45.81325" lon="3.00551">
        <ele>909.6</ele>
        <time>2013-09-01T15:19:51Z</time>
      </trkpt>
      <trkpt lat="45.81246" lon="3.0058">
        <ele>911.5</ele>
        <time>2013-09-01T15:20:22Z</time>
      </trkpt>
      <trkpt lat="45.81195" lon="3.00583">
        <ele>910.6</ele>
        <time>2013-09-01T15:20:42Z</time>
      </trkpt>
      <trkpt lat="45.81157" lon="3.00588">
        <ele>909.1</ele>
        <time>2013-09-01T15:20:57Z</time>
      </trkpt>
      <trkpt lat="45.81122" lon="3.00594">
        <ele>906.9</ele>
        <time>2013-09-01T15:21:11Z</time>
      </trkpt>
      <trkpt lat="45.811" lon="3.00607">
        <ele>903.6</ele>
        <time>2013-09-01T15:21:20Z</time>
      </trkpt>
      <trkpt lat="45.81084" lon="3.00636">
        <ele>896.8</ele>
        <time>2013-09-01T15:21:30Z</time>
      </trkpt>
      <trkpt lat="45.81076" lon="3.0066">
        <ele>891.8</ele>
        <time>2013-09-01T15:21:38Z</time>
      </trkpt>
      <trkpt lat="45.81073" lon="3.0068">
        <ele>888.8</ele>
        <time>2013-09-01T15:21:43Z</time>
      </trkpt>
      <trkpt lat="45.81055" lon="3.00717">
        <ele>885</ele>
        <time>2013-09-01T15:21:55Z</time>
      </trkpt>
      <trkpt lat="45.80964" lon="3.008">
        <ele>882.4</ele>
        <time>2013-09-01T15:22:37Z</time>
      </trkpt>
      <trkpt lat="45.80923" lon="3.00831">
        <ele>881</ele>
        <time>2013-09-01T15:22:55Z</time>
      </trkpt>
      <trkpt lat="45.80905" lon="3.00827">
        <ele>881.8</ele>
        <time>2013-09-01T15:23:02Z</time>
      </trkpt>
      <trkpt lat="45.80861" lon="3.00795">
        <ele>886.9</ele>
        <time>2013-09-01T15:23:21Z</time>
      </trkpt>
      <trkpt lat="45.80801" lon="3.00752">
        <ele>892.1</ele>
        <time>2013-09-01T15:23:47Z</time>
      </trkpt>
      <trkpt lat="45.80776" lon="3.00739">
        <ele>892.2</ele>
        <time>2013-09-01T15:23:57Z</time>
      </trkpt>
      <trkpt lat="45.80753" lon="3.00736">
        <ele>890.9</ele>
        <time>2013-09-01T15:24:06Z</time>
      </trkpt>
      <trkpt lat="45.80744" lon="3.00739">
        <ele>889.7</ele>
        <time>2013-09-01T15:24:10Z</time>
      </trkpt>
      <trkpt lat="45.80729" lon="3.00761">
        <ele>885.4</ele>
        <time>2013-09-01T15:24:18Z</time>
      </trkpt>
      <trkpt lat="45.80709" lon="3.008">
        <ele>880.9</ele>
        <time>2013-09-01T15:24:31Z</time>
      </trkpt>
      <trkpt lat="45.80703" lon="3.00826">
        <ele>878.6</ele>
        <time>2013-09-01T15:24:39Z</time>
      </trkpt>
      <trkpt lat="45.80708" lon="3.00841">
        <ele>877.5</ele>
        <time>2013-09-01T15:24:43Z</time>
      </trkpt>
      <trkpt lat="45.80734" lon="3.0088">
        <ele>874.2</ele>
        <time>2013-09-01T15:24:58Z</time>
      </trkpt>
      <trkpt lat="45.80735" lon="3.00908">
        <ele>871.9</ele>
        <time>2013-09-01T15:25:05Z</time>
      </trkpt>
      <trkpt lat="45.80749" lon="3.00997">
        <ele>860.6</ele>
        <time>2013-09-01T15:25:30Z</time>
      </trkpt>
      <trkpt lat="45.8075" lon="3.01031">
        <ele>858.2</ele>
        <time>2013-09-01T15:25:40Z</time>
      </trkpt>
      <trkpt lat="45.80745" lon="3.0105">
        <ele>858</ele>
        <time>2013-09-01T15:25:45Z</time>
      </trkpt>
      <trkpt lat="45.80735" lon="3.01074">
        <ele>859.2</ele>
        <time>2013-09-01T15:25:53Z</time>
      </trkpt>
      <trkpt lat="45.80724" lon="3.01037">
        <ele>863.3</ele>
        <time>2013-09-01T15:26:03Z</time>
      </trkpt>
      <trkpt lat="45.80702" lon="3.00976">
        <ele>870</ele>
        <time>2013-09-01T15:26:22Z</time>
      </trkpt>
      <trkpt lat="45.80692" lon="3.00965">
        <ele>872</ele>
        <time>2013-09-01T15:26:27Z</time>
      </trkpt>
      <trkpt lat="45.8069" lon="3.00969">
        <ele>872.2</ele>
        <time>2013-09-01T15:26:28Z</time>
      </trkpt>
      <trkpt lat="45.80695" lon="3.00996">
        <ele>870.2</ele>
        <time>2013-09-01T15:26:36Z</time>
      </trkpt>
      <trkpt lat="45.80691" lon="3.01008">
        <ele>870.6</ele>
        <time>2013-09-01T15:26:40Z</time>
      </trkpt>
      <trkpt lat="45.80691" lon="3.01017">
        <ele>870.5</ele>
        <time>2013-09-01T15:26:42Z</time>
      </trkpt>
      <trkpt lat="45.80679" lon="3.01026">
        <ele>872.6</ele>
        <time>2013-09-01T15:26:47Z</time>
      </trkpt>
      <trkpt lat="45.80664" lon="3.0101">
        <ele>875.6</ele>
        <time>2013-09-01T15:26:55Z</time>
      </trkpt>
      <trkpt lat="45.80656" lon="3.00988">
        <ele>877.4</ele>
        <time>2013-09-01T15:27:01Z</time>
      </trkpt>
      <trkpt lat="45.80628" lon="3.00952">
        <ele>883</ele>
        <time>2013-09-01T15:27:16Z</time>
      </trkpt>
      <trkpt lat="45.80607" lon="3.00962">
        <ele>887</ele>
        <time>2013-09-01T15:27:25Z</time>
      </trkpt>
      <trkpt lat="45.80589" lon="3.00948">
        <ele>890.3</ele>
        <time>2013-09-01T15:27:33Z</time>
      </trkpt>
      <trkpt lat="45.80547" lon="3.00966">
        <ele>898.9</ele>
        <time>2013-09-01T15:27:50Z</time>
      </trkpt>
      <trkpt lat="45.80502" lon="3.00995">
        <ele>906.9</ele>
        <time>2013-09-01T15:28:09Z</time>
      </trkpt>
      <trkpt lat="45.80465" lon="3.01053">
        <ele>908.7</ele>
        <time>2013-09-01T15:28:31Z</time>
      </trkpt>
      <trkpt lat="45.80443" lon="3.01076">
        <ele>911.2</ele>
        <time>2013-09-01T15:28:41Z</time>
      </trkpt>
      <trkpt lat="45.80406" lon="3.01088">
        <ele>916.3</ele>
        <time>2013-09-01T15:28:56Z</time>
      </trkpt>
      <trkpt lat="45.80349" lon="3.01065">
        <ele>921.9</ele>
        <time>2013-09-01T15:29:19Z</time>
      </trkpt>
      <trkpt lat="45.80295" lon="3.01043">
        <ele>923.7</ele>
        <time>2013-09-01T15:29:41Z</time>
      </trkpt>
      <trkpt lat="45.80265" lon="3.01037">
        <ele>922.5</ele>
        <time>2013-09-01T15:29:52Z</time>
      </trkpt>
      <trkpt lat="45.80207" lon="3.01066">
        <ele>915.4</ele>
        <time>2013-09-01T15:30:16Z</time>
      </trkpt>
      <trkpt lat="45.80131" lon="3.01092">
        <ele>912.6</ele>
        <time>2013-09-01T15:30:46Z</time>
      </trkpt>
      <trkpt lat="45.80096" lon="3.01095">
        <ele>915</ele>
        <time>2013-09-01T15:31:00Z</time>
      </trkpt>
      <trkpt lat="45.80055" lon="3.01104">
        <ele>914</ele>
        <time>2013-09-01T15:31:16Z</time>
      </trkpt>
      <trkpt lat="45.79998" lon="3.01104">
        <ele>913.5</ele>
        <time>2013-09-01T15:31:38Z</time>
      </trkpt>
      <trkpt lat="45.79931" lon="3.01093">
        <ele>916.2</ele>
        <time>2013-09-01T15:32:04Z</time>
      </trkpt>
      <trkpt lat="45.79964" lon="3.01245">
        <ele>900.1</ele>
        <time>2013-09-01T15:32:47Z</time>
      </trkpt>
      <trkpt lat="45.79948" lon="3.0158">
        <ele>859.8</ele>
        <time>2013-09-01T15:34:19Z</time>
      </trkpt>
      <trkpt lat="45.7994" lon="3.01725">
        <ele>839.3</ele>
        <time>2013-09-01T15:34:58Z</time>
      </trkpt>
      <trkpt lat="45.79945" lon="3.01853">
        <ele>824</ele>
        <time>2013-09-01T15:35:33Z</time>
      </trkpt>
      <trkpt lat="45.79961" lon="3.01896">
        <ele>821.6</ele>
        <time>2013-09-01T15:35:47Z</time>
      </trkpt>
      <trkpt lat="45.79956" lon="3.02048">
        <ele>819.3</ele>
        <time>2013-09-01T15:36:28Z</time>
      </trkpt>
      <trkpt lat="45.79959" lon="3.02098">
        <ele>815.9</ele>
        <time>2013-09-01T15:36:41Z</time>
      </trkpt>
      <trkpt lat="45.79977" lon="3.0215">
        <ele>810.2</ele>
        <time>2013-09-01T15:36:57Z</time>
      </trkpt>
      <trkpt lat="45.79961" lon="3.02225">
        <ele>803.8</ele>
        <time>2013-09-01T15:37:18Z</time>
      </trkpt>
      <trkpt lat="45.79956" lon="3.02337">
        <ele>795.9</ele>
        <time>2013-09-01T15:37:49Z</time>
      </trkpt>
      <trkpt lat="45.79961" lon="3.02399">
        <ele>789.6</ele>
        <time>2013-09-01T15:38:06Z</time>
      </trkpt>
      <trkpt lat="45.7995" lon="3.02449">
        <ele>784.3</ele>
        <time>2013-09-01T15:38:20Z</time>
      </trkpt>
      <trkpt lat="45.7992" lon="3.02477">
        <ele>782.8</ele>
        <time>2013-09-01T15:38:34Z</time>
      </trkpt>
      <trkpt lat="45.79902" lon="3.02498">
        <ele>781.4</ele>
        <time>2013-09-01T15:38:43Z</time>
      </trkpt>
      <trkpt lat="45.79909" lon="3.02558">
        <ele>774.9</ele>
        <time>2013-09-01T15:38:59Z</time>
      </trkpt>
      <trkpt lat="45.79902" lon="3.02615">
        <ele>772.7</ele>
        <time>2013-09-01T15:39:15Z</time>
      </trkpt>
      <trkpt lat="45.79843" lon="3.02771">
        <ele>773.5</ele>
        <time>2013-09-01T15:40:03Z</time>
      </trkpt>
      <trkpt lat="45.79819" lon="3.0278">
        <ele>770.7</ele>
        <time>2013-09-01T15:40:12Z</time>
      </trkpt>
      <trkpt lat="45.79803" lon="3.02791">
        <ele>767.4</ele>
        <time>2013-09-01T15:40:19Z</time>
      </trkpt>
      <trkpt lat="45.79793" lon="3.02809">
        <ele>764.2</ele>
        <time>2013-09-01T15:40:26Z</time>
      </trkpt>
      <trkpt lat="45.79774" lon="3.028">
        <ele>763.9</ele>
        <time>2013-09-01T15:40:33Z</time>
      </trkpt>
      <trkpt lat="45.7976" lon="3.02792">
        <ele>763.4</ele>
        <time>2013-09-01T15:40:39Z</time>
      </trkpt>
      <trkpt lat="45.79745" lon="3.02799">
        <ele>761.5</ele>
        <time>2013-09-01T15:40:45Z</time>
      </trkpt>
      <trkpt lat="45.79734" lon="3.02823">
        <ele>758.9</ele>
        <time>2013-09-01T15:40:53Z</time>
      </trkpt>
      <trkpt lat="45.79731" lon="3.02845">
        <ele>756</ele>
        <time>2013-09-01T15:40:59Z</time>
      </trkpt>
      <trkpt lat="45.79728" lon="3.02859">
        <ele>753.4</ele>
        <time>2013-09-01T15:41:03Z</time>
      </trkpt>
      <trkpt lat="45.79709" lon="3.02887">
        <ele>747.4</ele>
        <time>2013-09-01T15:41:14Z</time>
      </trkpt>
      <trkpt lat="45.79694" lon="3.02913">
        <ele>742.9</ele>
        <time>2013-09-01T15:41:23Z</time>
      </trkpt>
      <trkpt lat="45.79691" lon="3.02931">
        <ele>740.6</ele>
        <time>2013-09-01T15:41:28Z</time>
      </trkpt>
      <trkpt lat="45.79694" lon="3.02967">
        <ele>736.4</ele>
        <time>2013-09-01T15:41:38Z</time>
      </trkpt>
      <trkpt lat="45.79687" lon="3.02993">
        <ele>733.7</ele>
        <time>2013-09-01T15:41:46Z</time>
      </trkpt>
      <trkpt lat="45.79676" lon="3.03017">
        <ele>731.2</ele>
        <time>2013-09-01T15:41:54Z</time>
      </trkpt>
      <trkpt lat="45.79682" lon="3.03053">
        <ele>717.2</ele>
        <time>2013-09-01T15:42:05Z</time>
      </trkpt>
      <trkpt lat="45.79705" lon="3.03094">
        <ele>715.5</ele>
        <time>2013-09-01T15:42:19Z</time>
      </trkpt>
      <trkpt lat="45.79718" lon="3.03152">
        <ele>711.8</ele>
        <time>2013-09-01T15:42:35Z</time>
      </trkpt>
      <trkpt lat="45.79725" lon="3.03226">
        <ele>706.9</ele>
        <time>2013-09-01T15:42:55Z</time>
      </trkpt>
      <trkpt lat="45.7973" lon="3.03282">
        <ele>704.2</ele>
        <time>2013-09-01T15:43:11Z</time>
      </trkpt>
      <trkpt lat="45.79765" lon="3.03399">
        <ele>702.5</ele>
        <time>2013-09-01T15:43:45Z</time>
      </trkpt>
      <trkpt lat="45.79809" lon="3.03476">
        <ele>700.5</ele>
        <time>2013-09-01T15:44:12Z</time>
      </trkpt>
      <trkpt lat="45.79868" lon="3.0355">
        <ele>697.7</ele>
        <time>2013-09-01T15:44:42Z</time>
      </trkpt>
      <trkpt lat="45.79907" lon="3.03625">
        <ele>696.7</ele>
        <time>2013-09-01T15:45:07Z</time>
      </trkpt>
      <trkpt lat="45.7996" lon="3.03756">
        <ele>693.3</ele>
        <time>2013-09-01T15:45:48Z</time>
      </trkpt>
      <trkpt lat="45.79972" lon="3.03834">
        <ele>687.3</ele>
        <time>2013-09-01T15:46:10Z</time>
      </trkpt>
      <trkpt lat="45.79954" lon="3.04067">
        <ele>677</ele>
        <time>2013-09-01T15:47:13Z</time>
      </trkpt>
      <trkpt lat="45.7996" lon="3.04117">
        <ele>676</ele>
        <time>2013-09-01T15:47:27Z</time>
      </trkpt>
      <trkpt lat="45.79991" lon="3.04159">
        <ele>673.7</ele>
        <time>2013-09-01T15:47:43Z</time>
      </trkpt>
      <trkpt lat="45.80008" lon="3.0419">
        <ele>669.3</ele>
        <time>2013-09-01T15:47:54Z</time>
      </trkpt>
      <trkpt lat="45.80022" lon="3.0422">
        <ele>666.5</ele>
        <time>2013-09-01T15:48:04Z</time>
      </trkpt>
      <trkpt lat="45.80025" lon="3.04272">
        <ele>666.1</ele>
        <time>2013-09-01T15:48:18Z</time>
      </trkpt>
      <trkpt lat="45.80033" lon="3.04302">
        <ele>664.1</ele>
        <time>2013-09-01T15:48:27Z</time>
      </trkpt>
      <trkpt lat="45.8004" lon="3.04321">
        <ele>662.7</ele>
        <time>2013-09-01T15:48:33Z</time>
      </trkpt>
      <trkpt lat="45.80071" lon="3.04327">
        <ele>660</ele>
        <time>2013-09-01T15:48:45Z</time>
      </trkpt>
      <trkpt lat="45.80085" lon="3.04334">
        <ele>658.9</ele>
        <time>2013-09-01T15:48:50Z</time>
      </trkpt>
      <trkpt lat="45.8009" lon="3.04368">
        <ele>658.2</ele>
        <time>2013-09-01T15:49:00Z</time>
      </trkpt>
      <trkpt lat="45.80087" lon="3.04401">
        <ele>653.6</ele>
        <time>2013-09-01T15:49:09Z</time>
      </trkpt>
      <trkpt lat="45.80067" lon="3.04446">
        <ele>648</ele>
        <time>2013-09-01T15:49:23Z</time>
      </trkpt>
      <trkpt lat="45.80059" lon="3.04471">
        <ele>644.5</ele>
        <time>2013-09-01T15:49:31Z</time>
      </trkpt>
      <trkpt lat="45.80064" lon="3.04493">
        <ele>640.5</ele>
        <time>2013-09-01T15:49:37Z</time>
      </trkpt>
      <trkpt lat="45.80077" lon="3.04501">
        <ele>638.6</ele>
        <time>2013-09-01T15:49:43Z</time>
      </trkpt>
      <trkpt lat="45.8009" lon="3.04507">
        <ele>637</ele>
        <time>2013-09-01T15:49:48Z</time>
      </trkpt>
      <trkpt lat="45.80091" lon="3.04516">
        <ele>635.8</ele>
        <time>2013-09-01T15:49:51Z</time>
      </trkpt>
      <trkpt lat="45.80091" lon="3.04533">
        <ele>633.5</ele>
        <time>2013-09-01T15:49:55Z</time>
      </trkpt>
      <trkpt lat="45.80104" lon="3.04534">
        <ele>632.1</ele>
        <time>2013-09-01T15:50:01Z</time>
      </trkpt>
      <trkpt lat="45.80122" lon="3.04517">
        <ele>630.9</ele>
        <time>2013-09-01T15:50:09Z</time>
      </trkpt>
      <trkpt lat="45.80188" lon="3.04463">
        <ele>622.1</ele>
        <time>2013-09-01T15:50:38Z</time>
      </trkpt>
      <trkpt lat="45.80234" lon="3.04419">
        <ele>616.4</ele>
        <time>2013-09-01T15:51:00Z</time>
      </trkpt>
      <trkpt lat="45.80262" lon="3.04389">
        <ele>613.1</ele>
        <time>2013-09-01T15:51:14Z</time>
      </trkpt>
      <trkpt lat="45.80271" lon="3.04389">
        <ele>611.4</ele>
        <time>2013-09-01T15:51:17Z</time>
      </trkpt>
      <trkpt lat="45.80287" lon="3.04396">
        <ele>608.7</ele>
        <time>2013-09-01T15:51:24Z</time>
      </trkpt>
      <trkpt lat="45.80296" lon="3.04405">
        <ele>607.3</ele>
        <time>2013-09-01T15:51:28Z</time>
      </trkpt>
      <trkpt lat="45.80298" lon="3.04409">
        <ele>607</ele>
        <time>2013-09-01T15:51:29Z</time>
      </trkpt>
      <trkpt lat="45.80301" lon="3.04421">
        <ele>606.5</ele>
        <time>2013-09-01T15:51:33Z</time>
      </trkpt>
      <trkpt lat="45.80303" lon="3.0445">
        <ele>603.3</ele>
        <time>2013-09-01T15:51:41Z</time>
      </trkpt>
      <trkpt lat="45.803" lon="3.04476">
        <ele>599.8</ele>
        <time>2013-09-01T15:51:48Z</time>
      </trkpt>
      <trkpt lat="45.80301" lon="3.04495">
        <ele>596.2</ele>
        <time>2013-09-01T15:51:53Z</time>
      </trkpt>
      <trkpt lat="45.80307" lon="3.0452">
        <ele>591.1</ele>
        <time>2013-09-01T15:52:00Z</time>
      </trkpt>
      <trkpt lat="45.8031" lon="3.04541">
        <ele>586.5</ele>
        <time>2013-09-01T15:52:06Z</time>
      </trkpt>
      <trkpt lat="45.80313" lon="3.04557">
        <ele>582.1</ele>
        <time>2013-09-01T15:52:11Z</time>
      </trkpt>
      <trkpt lat="45.80325" lon="3.04572">
        <ele>579.3</ele>
        <time>2013-09-01T15:52:17Z</time>
      </trkpt>
      <trkpt lat="45.80355" lon="3.04592">
        <ele>580.2</ele>
        <time>2013-09-01T15:52:30Z</time>
      </trkpt>
      <trkpt lat="45.80384" lon="3.04601">
        <ele>582</ele>
        <time>2013-09-01T15:52:41Z</time>
      </trkpt>
      <trkpt lat="45.80386" lon="3.04601">
        <ele>581.8</ele>
        <time>2013-09-01T15:52:42Z</time>
      </trkpt>
      <trkpt lat="45.8041" lon="3.04619">
        <ele>575.2</ele>
        <time>2013-09-01T15:52:53Z</time>
      </trkpt>
      <trkpt lat="45.80413" lon="3.04621">
        <ele>574.5</ele>
        <time>2013-09-01T15:52:54Z</time>
      </trkpt>
      <trkpt lat="45.80423" lon="3.04629">
        <ele>571.5</ele>
        <time>2013-09-01T15:52:59Z</time>
      </trkpt>
      <trkpt lat="45.80434" lon="3.04631">
        <ele>570.5</ele>
        <time>2013-09-01T15:53:03Z</time>
      </trkpt>
      <trkpt lat="45.80439" lon="3.0463">
        <ele>570.7</ele>
        <time>2013-09-01T15:53:05Z</time>
      </trkpt>
      <trkpt lat="45.80445" lon="3.04621">
        <ele>573.1</ele>
        <time>2013-09-01T15:53:09Z</time>
      </trkpt>
      <trkpt lat="45.80448" lon="3.04623">
        <ele>572.2</ele>
        <time>2013-09-01T15:53:10Z</time>
      </trkpt>
      <trkpt lat="45.80451" lon="3.04626">
        <ele>571.1</ele>
        <time>2013-09-01T15:53:12Z</time>
      </trkpt>
      <trkpt lat="45.80451" lon="3.04631">
        <ele>569.9</ele>
        <time>2013-09-01T15:53:13Z</time>
      </trkpt>
      <trkpt lat="45.80452" lon="3.04641">
        <ele>567.1</ele>
        <time>2013-09-01T15:53:16Z</time>
      </trkpt>
      <trkpt lat="45.80445" lon="3.04661">
        <ele>561.9</ele>
        <time>2013-09-01T15:53:22Z</time>
      </trkpt>
      <trkpt lat="45.80428" lon="3.04666">
        <ele>560.1</ele>
        <time>2013-09-01T15:53:29Z</time>
      </trkpt>
      <trkpt lat="45.80408" lon="3.04655">
        <ele>563.3</ele>
        <time>2013-09-01T15:53:37Z</time>
      </trkpt>
      <trkpt lat="45.80393" lon="3.04655">
        <ele>563.4</ele>
        <time>2013-09-01T15:53:43Z</time>
      </trkpt>
      <trkpt lat="45.8039" lon="3.04658">
        <ele>562.7</ele>
        <time>2013-09-01T15:53:44Z</time>
      </trkpt>
      <trkpt lat="45.8038" lon="3.04666">
        <ele>560.2</ele>
        <time>2013-09-01T15:53:49Z</time>
      </trkpt>
      <trkpt lat="45.8036" lon="3.04688">
        <ele>550.2</ele>
        <time>2013-09-01T15:53:59Z</time>
      </trkpt>
      <trkpt lat="45.80334" lon="3.04671">
        <ele>550.7</ele>
        <time>2013-09-01T15:54:10Z</time>
      </trkpt>
      <trkpt lat="45.80317" lon="3.04658">
        <ele>552.4</ele>
        <time>2013-09-01T15:54:18Z</time>
      </trkpt>
      <trkpt lat="45.80274" lon="3.04637">
        <ele>562.7</ele>
        <time>2013-09-01T15:54:35Z</time>
      </trkpt>
      <trkpt lat="45.80268" lon="3.04646">
        <ele>561.9</ele>
        <time>2013-09-01T15:54:39Z</time>
      </trkpt>
      <trkpt lat="45.80257" lon="3.04691">
        <ele>560.3</ele>
        <time>2013-09-01T15:54:52Z</time>
      </trkpt>
      <trkpt lat="45.80243" lon="3.04729">
        <ele>559.5</ele>
        <time>2013-09-01T15:55:03Z</time>
      </trkpt>
      <trkpt lat="45.8024" lon="3.04764">
        <ele>552.9</ele>
        <time>2013-09-01T15:55:13Z</time>
      </trkpt>
      <trkpt lat="45.80235" lon="3.0478">
        <ele>550.2</ele>
        <time>2013-09-01T15:55:18Z</time>
      </trkpt>
      <trkpt lat="45.80221" lon="3.04803">
        <ele>547.4</ele>
        <time>2013-09-01T15:55:26Z</time>
      </trkpt>
      <trkpt lat="45.80203" lon="3.04821">
        <ele>546.4</ele>
        <time>2013-09-01T15:55:35Z</time>
      </trkpt>
      <trkpt lat="45.80177" lon="3.04864">
        <ele>539.6</ele>
        <time>2013-09-01T15:55:50Z</time>
      </trkpt>
      <trkpt lat="45.80163" lon="3.04899">
        <ele>534.7</ele>
        <time>2013-09-01T15:56:01Z</time>
      </trkpt>
      <trkpt lat="45.8016" lon="3.0491">
        <ele>532.7</ele>
        <time>2013-09-01T15:56:05Z</time>
      </trkpt>
      <trkpt lat="45.80161" lon="3.0492">
        <ele>530.9</ele>
        <time>2013-09-01T15:56:07Z</time>
      </trkpt>
      <trkpt lat="45.80158" lon="3.04925">
        <ele>527.6</ele>
        <time>2013-09-01T15:56:09Z</time>
      </trkpt>
      <trkpt lat="45.80136" lon="3.04972">
        <ele>526.3</ele>
        <time>2013-09-01T15:56:24Z</time>
      </trkpt>
      <trkpt lat="45.80097" lon="3.05021">
        <ele>525.2</ele>
        <time>2013-09-01T15:56:45Z</time>
      </trkpt>
      <trkpt lat="45.80093" lon="3.05042">
        <ele>522.4</ele>
        <time>2013-09-01T15:56:51Z</time>
      </trkpt>
      <trkpt lat="45.80097" lon="3.05094">
        <ele>513.5</ele>
        <time>2013-09-01T15:57:05Z</time>
      </trkpt>
      <trkpt lat="45.80046" lon="3.05154">
        <ele>504</ele>
        <time>2013-09-01T15:57:30Z</time>
      </trkpt>
      <trkpt lat="45.80027" lon="3.05177">
        <ele>502</ele>
        <time>2013-09-01T15:57:40Z</time>
      </trkpt>
      <trkpt lat="45.80014" lon="3.05221">
        <ele>498.6</ele>
        <time>2013-09-01T15:57:53Z</time>
      </trkpt>
      <trkpt lat="45.80012" lon="3.05312">
        <ele>496.1</ele>
        <time>2013-09-01T15:58:18Z</time>
      </trkpt>
      <trkpt lat="45.80011" lon="3.05367">
        <ele>496.7</ele>
        <time>2013-09-01T15:58:33Z</time>
      </trkpt>
      <trkpt lat="45.80021" lon="3.05424">
        <ele>496.9</ele>
        <time>2013-09-01T15:58:49Z</time>
      </trkpt>
      <trkpt lat="45.8002" lon="3.05468">
        <ele>498</ele>
        <time>2013-09-01T15:59:00Z</time>
      </trkpt>
      <trkpt lat="45.80059" lon="3.05541">
        <ele>496.2</ele>
        <time>2013-09-01T15:59:25Z</time>
      </trkpt>
      <trkpt lat="45.80071" lon="3.05604">
        <ele>495.7</ele>
        <time>2013-09-01T15:59:43Z</time>
      </trkpt>
      <trkpt lat="45.80117" lon="3.05614">
        <ele>497.7</ele>
        <time>2013-09-01T16:00:01Z</time>
      </trkpt>
      <trkpt lat="45.80108" lon="3.05642">
        <ele>498.6</ele>
        <time>2013-09-01T16:00:09Z</time>
      </trkpt>
      <trkpt lat="45.80063" lon="3.05671">
        <ele>501.5</ele>
        <time>2013-09-01T16:00:28Z</time>
      </trkpt>
      <trkpt lat="45.79959" lon="3.05702">
        <ele>501.9</ele>
        <time>2013-09-01T16:01:09Z</time>
      </trkpt>
      <trkpt lat="45.79849" lon="3.05814">
        <ele>504</ele>
        <time>2013-09-01T16:02:01Z</time>
      </trkpt>
      <trkpt lat="45.79867" lon="3.05855">
        <ele>507.5</ele>
        <time>2013-09-01T16:02:15Z</time>
      </trkpt>
      <trkpt lat="45.79935" lon="3.05866">
        <ele>515.2</ele>
        <time>2013-09-01T16:02:41Z</time>
      </trkpt>
      <trkpt lat="45.79984" lon="3.05855">
        <ele>524</ele>
        <time>2013-09-01T16:03:01Z</time>
      </trkpt>
      <trkpt lat="45.79993" lon="3.0586">
        <ele>526.3</ele>
        <time>2013-09-01T16:03:04Z</time>
      </trkpt>
      <trkpt lat="45.80014" lon="3.05938">
        <ele>540.3</ele>
        <time>2013-09-01T16:03:27Z</time>
      </trkpt>
      <trkpt lat="45.79998" lon="3.06089">
        <ele>557.7</ele>
        <time>2013-09-01T16:04:09Z</time>
      </trkpt>
      <trkpt lat="45.80022" lon="3.06123">
        <ele>565.3</ele>
        <time>2013-09-01T16:04:22Z</time>
      </trkpt>
      <trkpt lat="45.80057" lon="3.06136">
        <ele>567.1</ele>
        <time>2013-09-01T16:04:36Z</time>
      </trkpt>
      <trkpt lat="45.80147" lon="3.061">
        <ele>558.8</ele>
        <time>2013-09-01T16:05:13Z</time>
      </trkpt>
      <trkpt lat="45.80347" lon="3.06175">
        <ele>563</ele>
        <time>2013-09-01T16:06:32Z</time>
      </trkpt>
      <trkpt lat="45.80401" lon="3.06198">
        <ele>561.1</ele>
        <time>2013-09-01T16:06:54Z</time>
      </trkpt>
      <trkpt lat="45.80474" lon="3.06172">
        <ele>547.9</ele>
        <time>2013-09-01T16:07:24Z</time>
      </trkpt>
      <trkpt lat="45.80552" lon="3.06222">
        <ele>541.3</ele>
        <time>2013-09-01T16:07:57Z</time>
      </trkpt>
      <trkpt lat="45.80629" lon="3.06313">
        <ele>538.2</ele>
        <time>2013-09-01T16:08:35Z</time>
      </trkpt>
      <trkpt lat="45.80683" lon="3.06398">
        <ele>534.7</ele>
        <time>2013-09-01T16:09:06Z</time>
      </trkpt>
      <trkpt lat="45.8072" lon="3.06505">
        <ele>534.3</ele>
        <time>2013-09-01T16:09:39Z</time>
      </trkpt>
      <trkpt lat="45.80733" lon="3.06547">
        <ele>536.1</ele>
        <time>2013-09-01T16:09:51Z</time>
      </trkpt>
      <trkpt lat="45.8076" lon="3.06585">
        <ele>536.9</ele>
        <time>2013-09-01T16:10:06Z</time>
      </trkpt>
      <trkpt lat="45.80826" lon="3.06604">
        <ele>539.3</ele>
        <time>2013-09-01T16:10:32Z</time>
      </trkpt>
      <trkpt lat="45.8092" lon="3.06645">
        <ele>543.5</ele>
        <time>2013-09-01T16:11:10Z</time>
      </trkpt>
      <trkpt lat="45.81049" lon="3.0676">
        <ele>545.4</ele>
        <time>2013-09-01T16:12:08Z</time>
      </trkpt>
      <trkpt lat="45.81042" lon="3.06814">
        <ele>551.2</ele>
        <time>2013-09-01T16:12:23Z</time>
      </trkpt>
      <trkpt lat="45.8106" lon="3.06832">
        <ele>550.9</ele>
        <time>2013-09-01T16:12:32Z</time>
      </trkpt>
      <trkpt lat="45.81085" lon="3.06809">
        <ele>545.3</ele>
        <time>2013-09-01T16:12:44Z</time>
      </trkpt>
      <trkpt lat="45.81214" lon="3.06952">
        <ele>535.7</ele>
        <time>2013-09-01T16:13:47Z</time>
      </trkpt>
      <trkpt lat="45.81234" lon="3.06853">
        <ele>527.6</ele>
        <time>2013-09-01T16:14:15Z</time>
      </trkpt>
      <trkpt lat="45.81301" lon="3.0663">
        <ele>506.4</ele>
        <time>2013-09-01T16:15:21Z</time>
      </trkpt>
      <trkpt lat="45.81311" lon="3.06562">
        <ele>500.4</ele>
        <time>2013-09-01T16:15:39Z</time>
      </trkpt>
      <trkpt lat="45.81304" lon="3.06492">
        <ele>493.3</ele>
        <time>2013-09-01T16:15:59Z</time>
      </trkpt>
      <trkpt lat="45.81335" lon="3.06508">
        <ele>493.7</ele>
        <time>2013-09-01T16:16:11Z</time>
      </trkpt>
      <trkpt lat="45.81396" lon="3.06637">
        <ele>498.3</ele>
        <time>2013-09-01T16:16:53Z</time>
      </trkpt>
      <trkpt lat="45.81412" lon="3.06762">
        <ele>502.8</ele>
        <time>2013-09-01T16:17:28Z</time>
      </trkpt>
      <trkpt lat="45.81484" lon="3.06734">
        <ele>496.7</ele>
        <time>2013-09-01T16:17:57Z</time>
      </trkpt>
      <trkpt lat="45.81545" lon="3.06856">
        <ele>493.6</ele>
        <time>2013-09-01T16:18:37Z</time>
      </trkpt>
      <trkpt lat="45.81579" lon="3.06908">
        <ele>488.6</ele>
        <time>2013-09-01T16:18:56Z</time>
      </trkpt>
      <trkpt lat="45.81597" lon="3.0691">
        <ele>486</ele>
        <time>2013-09-01T16:19:03Z</time>
      </trkpt>
      <trkpt lat="45.81633" lon="3.07082">
        <ele>488.8</ele>
        <time>2013-09-01T16:19:52Z</time>
      </trkpt>
      <trkpt lat="45.81653" lon="3.07139">
        <ele>489.6</ele>
        <time>2013-09-01T16:20:09Z</time>
      </trkpt>
      <trkpt lat="45.81649" lon="3.07199">
        <ele>490.5</ele>
        <time>2013-09-01T16:20:25Z</time>
      </trkpt>
      <trkpt lat="45.81647" lon="3.07233">
        <ele>489.1</ele>
        <time>2013-09-01T16:20:34Z</time>
      </trkpt>
      <trkpt lat="45.81638" lon="3.0729">
        <ele>488.9</ele>
        <time>2013-09-01T16:20:50Z</time>
      </trkpt>
      <trkpt lat="45.81649" lon="3.07339">
        <ele>487.2</ele>
        <time>2013-09-01T16:21:04Z</time>
      </trkpt>
      <trkpt lat="45.81664" lon="3.07321">
        <ele>483.4</ele>
        <time>2013-09-01T16:21:11Z</time>
      </trkpt>
      <trkpt lat="45.81692" lon="3.07316">
        <ele>476</ele>
        <time>2013-09-01T16:21:23Z</time>
      </trkpt>
      <trkpt lat="45.81725" lon="3.07321">
        <ele>467</ele>
        <time>2013-09-01T16:21:36Z</time>
      </trkpt>
      <trkpt lat="45.81737" lon="3.07344">
        <ele>462.2</ele>
        <time>2013-09-01T16:21:44Z</time>
      </trkpt>
      <trkpt lat="45.81746" lon="3.07469">
        <ele>454.9</ele>
        <time>2013-09-01T16:22:18Z</time>
      </trkpt>
      <trkpt lat="45.81788" lon="3.07464">
        <ele>442.2</ele>
        <time>2013-09-01T16:22:35Z</time>
      </trkpt>
      <trkpt lat="45.8185" lon="3.07513">
        <ele>424.5</ele>
        <time>2013-09-01T16:23:03Z</time>
      </trkpt>
      <trkpt lat="45.81939" lon="3.0755">
        <ele>405.6</ele>
        <time>2013-09-01T16:23:39Z</time>
      </trkpt>
      <trkpt lat="45.81992" lon="3.07524">
        <ele>396.9</ele>
        <time>2013-09-01T16:24:01Z</time>
      </trkpt>
      <trkpt lat="45.82023" lon="3.07547">
        <ele>392.8</ele>
        <time>2013-09-01T16:24:15Z</time>
      </trkpt>
      <trkpt lat="45.82037" lon="3.07594">
        <ele>390.8</ele>
        <time>2013-09-01T16:24:28Z</time>
      </trkpt>
      <trkpt lat="45.82181" lon="3.07589">
        <ele>382</ele>
        <time>2013-09-01T16:25:24Z</time>
      </trkpt>
      <trkpt lat="45.82206" lon="3.07588">
        <ele>375.5</ele>
        <time>2013-09-01T16:25:34Z</time>
      </trkpt>
      <trkpt lat="45.82202" lon="3.07713">
        <ele>375.6</ele>
        <time>2013-09-01T16:26:08Z</time>
      </trkpt>
      <trkpt lat="45.82217" lon="3.07815">
        <ele>375.7</ele>
        <time>2013-09-01T16:26:36Z</time>
      </trkpt>
    </trkseg>
  </trk>
</gpx>